Observation data for Earth on 08/14/2019      Previous  Date  Next       Current Mesonet Observations  Soil Data  Daily Summary Page  Observations in Plain Language
KEA1 140500Z 10006KT 24/16 A3018 RMK A01 T02420164  RH  062%=      5-min Rain = 0
KEA1 140501Z 10006KT 24/16 A3018 RMK A01 T02420164  RH  062%=      5-min Rain = 0
KEA1 140502Z 10006KT 24/16 A3018 RMK A01 T02410164  RH  062%=      5-min Rain = 0
KEA1 140503Z 10007KT 24/16 A3018 RMK A01 T02410164  RH  062%=      5-min Rain = 0
KEA1 140504Z 10007KT 24/16 A3018 RMK A01 T02400164  RH  062%=      5-min Rain = 0
KEA1 140505Z 10007KT 24/17 A3018 RMK A01 T02410165  RH  062%=      5-min Rain = 0
KEA1 140506Z 11007KT 24/16 A3018 RMK A01 T02400164  RH  062%=      5-min Rain = 0
KEA1 140507Z 11007KT 24/16 A3018 RMK A01 T02400164  RH  063%=      5-min Rain = 0
KEA1 140508Z 11008KT 24/17 A3018 RMK A01 T02400165  RH  063%=      5-min Rain = 0
KEA1 140509Z 11007KT 24/17 A3018 RMK A01 T02400165  RH  063%=      5-min Rain = 0
KEA1 140510Z 11008KT 24/16 A3018 RMK A01 T02400164  RH  063%=      5-min Rain = 0
KEA1 140526Z 11008KT 24/17 A3017 RMK A01 T02380166  RH  064%=      5-min Rain = 0
KEA1 140527Z 11007KT 24/17 A3017 RMK A01 T02380166  RH  064%=      5-min Rain = 0
KEA1 140528Z 11007KT 24/17 A3017 RMK A01 T02380167  RH  064%=      5-min Rain = 0
KEA1 140529Z 11007KT 24/17 A3017 RMK A01 T02380167  RH  064%=      5-min Rain = 0
KEA1 140530Z 11006KT 24/17 A3017 RMK A01 T02380167  RH  064%=      5-min Rain = 0
KEA1 140531Z 11007KT 24/17 A3017 RMK A01 T02380167  RH  064%=      5-min Rain = 0
KEA1 140532Z 11007KT 24/17 A3017 RMK A01 T02380167  RH  065%=      5-min Rain = 0
KEA1 140533Z 11007KT 24/17 A3017 RMK A01 T02370167  RH  065%=      5-min Rain = 0
KEA1 140534Z 11007KT 24/17 A3017 RMK A01 T02370167  RH  065%=      5-min Rain = 0
KEA1 140535Z 11007KT 24/17 A3017 RMK A01 T02370167  RH  065%=      5-min Rain = 0
KEA1 140536Z 11006KT 24/17 A3017 RMK A01 T02370167  RH  065%=      5-min Rain = 0
KEA1 140537Z 11006KT 24/17 A3017 RMK A01 T02370167  RH  065%=      5-min Rain = 0
KEA1 140538Z 11006KT 24/17 A3017 RMK A01 T02360168  RH  065%=      5-min Rain = 0
KEA1 140539Z 11006KT 24/17 A3017 RMK A01 T02360167  RH  066%=      5-min Rain = 0
KEA1 140540Z 11006KT 24/17 A3017 RMK A01 T02350168  RH  066%=      5-min Rain = 0
KEA1 140541Z 10006KT 24/17 A3017 RMK A01 T02350168  RH  066%=      5-min Rain = 0
KEA1 140542Z 10005KT 23/17 A3017 RMK A01 T02340167  RH  066%=      5-min Rain = 0
KEA1 140543Z 10006KT 23/17 A3017 RMK A01 T02340167  RH  066%=      5-min Rain = 0
KEA1 140544Z 10006KT 23/17 A3017 RMK A01 T02330167  RH  066%=      5-min Rain = 0
KEA1 140545Z 10006KT 23/17 A3017 RMK A01 T02330167  RH  067%=      5-min Rain = 0
KEA1 140546Z 10005KT 23/17 A3017 RMK A01 T02320167  RH  067%=      5-min Rain = 0
KEA1 140547Z 09005KT 23/17 A3017 RMK A01 T02320168  RH  067%=      5-min Rain = 0
KEA1 140548Z 09005KT 23/17 A3017 RMK A01 T02310167  RH  067%=      5-min Rain = 0
KEA1 140549Z 09005KT 23/17 A3017 RMK A01 T02300167  RH  068%=      5-min Rain = 0
KEA1 140550Z 09005KT 23/17 A3017 RMK A01 T02300167  RH  068%=      5-min Rain = 0
KEA1 140551Z 09005KT 23/17 A3017 RMK A01 T02290168  RH  068%=      5-min Rain = 0
KEA1 140552Z 09004KT 23/17 A3017 RMK A01 T02290167  RH  068%=      5-min Rain = 0
KEA1 140553Z 09004KT 23/17 A3017 RMK A01 T02280168  RH  069%=      5-min Rain = 0
KEA1 140554Z 09004KT 23/17 A3017 RMK A01 T02280168  RH  069%=      5-min Rain = 0
KEA1 140555Z 09004KT 23/17 A3017 RMK A01 T02280168  RH  069%=      5-min Rain = 0
KEA1 140556Z 09004KT 23/17 A3017 RMK A01 T02270167  RH  069%=      5-min Rain = 0
KEA1 140557Z 09004KT 23/17 A3017 RMK A01 T02270167  RH  069%=      5-min Rain = 0
KEA1 140558Z 09004KT 23/17 A3017 RMK A01 T02260167  RH  069%=      5-min Rain = 0
KEA1 140559Z 10005KT 23/17 A3017 RMK A01 T02260167  RH  070%=      5-min Rain = 0
KEA1 140600Z 10005KT 23/17 A3017 RMK A01 T02250167  RH  070%=      5-min Rain = 0
KEA1 140601Z 10005KT 23/17 A3017 RMK A01 T02250167  RH  070%=      5-min Rain = 0
KEA1 140602Z 10005KT 23/17 A3017 RMK A01 T02250167  RH  070%=      5-min Rain = 0
KEA1 140603Z 10005KT 23/17 A3017 RMK A01 T02250167  RH  070%=      5-min Rain = 0
KEA1 140604Z 09005KT 23/17 A3017 RMK A01 T02250167  RH  070%=      5-min Rain = 0
KEA1 140605Z 09005KT 23/17 A3017 RMK A01 T02250167  RH  070%=      5-min Rain = 0
KEA1 140606Z 09004KT 22/17 A3017 RMK A01 T02240167  RH  070%=      5-min Rain = 0
KEA1 140607Z 09005KT 22/17 A3017 RMK A01 T02230167  RH  071%=      5-min Rain = 0
KEA1 140608Z 09005KT 22/17 A3017 RMK A01 T02230168  RH  071%=      5-min Rain = 0
KEA1 140609Z 08005KT 22/17 A3017 RMK A01 T02230168  RH  071%=      5-min Rain = 0
KEA1 140610Z 09005KT 22/17 A3017 RMK A01 T02230168  RH  071%=      5-min Rain = 0
KEA1 140611Z 09004KT 22/17 A3017 RMK A01 T02220168  RH  071%=      5-min Rain = 0
KEA1 140612Z 09004KT 22/17 A3017 RMK A01 T02220167  RH  071%=      5-min Rain = 0
KEA1 140613Z 09004KT 22/17 A3018 RMK A01 T02220168  RH  072%=      5-min Rain = 0
KEA1 140614Z 09004KT 22/17 A3018 RMK A01 T02210167  RH  072%=      5-min Rain = 0
KEA1 140615Z 09004KT 22/17 A3018 RMK A01 T02200167  RH  072%=      5-min Rain = 0
KEA1 140616Z 09004KT 22/17 A3018 RMK A01 T02200167  RH  072%=      5-min Rain = 0
KEA1 140617Z 09004KT 22/17 A3018 RMK A01 T02190168  RH  072%=      5-min Rain = 0
KEA1 140618Z 09004KT 22/17 A3018 RMK A01 T02190167  RH  072%=      5-min Rain = 0
KEA1 140619Z 09004KT 22/17 A3018 RMK A01 T02190168  RH  073%=      5-min Rain = 0
KEA1 140620Z 09005KT 22/17 A3018 RMK A01 T02180167  RH  073%=      5-min Rain = 0
KEA1 140621Z 09005KT 22/17 A3018 RMK A01 T02180168  RH  073%=      5-min Rain = 0
KEA1 140622Z 09005KT 22/17 A3018 RMK A01 T02180168  RH  073%=      5-min Rain = 0
KEA1 140623Z 09005KT 22/17 A3018 RMK A01 T02180168  RH  073%=      5-min Rain = 0
KEA1 140624Z 09004KT 22/17 A3018 RMK A01 T02190168  RH  073%=      5-min Rain = 0
KEA1 140625Z 09004KT 22/17 A3019 RMK A01 T02190168  RH  073%=      5-min Rain = 0
KEA1 140626Z 09004KT 22/17 A3019 RMK A01 T02180168  RH  073%=      5-min Rain = 0
KEA1 140627Z 09004KT 22/17 A3019 RMK A01 T02180168  RH  073%=      5-min Rain = 0
KEA1 140628Z 09004KT 22/17 A3019 RMK A01 T02170168  RH  073%=      5-min Rain = 0
KEA1 140629Z 09004KT 22/17 A3019 RMK A01 T02160168  RH  074%=      5-min Rain = 0
KEA1 140630Z 09005KT 22/17 A3019 RMK A01 T02160168  RH  074%=      5-min Rain = 0
KEA1 140631Z 08005KT 22/17 A3019 RMK A01 T02150167  RH  074%=      5-min Rain = 0
KEA1 140632Z 08006KT 21/17 A3019 RMK A01 T02140167  RH  075%=      5-min Rain = 0
KEA1 140633Z 08005KT 22/17 A3019 RMK A01 T02150168  RH  075%=      5-min Rain = 0
KEA1 140634Z 08006KT 21/17 A3019 RMK A01 T02140168  RH  075%=      5-min Rain = 0
KEA1 140635Z 08006KT 21/17 A3019 RMK A01 T02140168  RH  075%=      5-min Rain = 0
KEA1 140636Z 08006KT 21/17 A3019 RMK A01 T02140168  RH  075%=      5-min Rain = 0
KEA1 140637Z 08007KT 21/17 A3019 RMK A01 T02140169  RH  075%=      5-min Rain = 0
KEA1 140638Z 08007KT 22/17 A3019 RMK A01 T02150170  RH  075%=      5-min Rain = 0
KEA1 140639Z 09006KT 22/17 A3019 RMK A01 T02150170  RH  075%=      5-min Rain = 0
KEA1 140640Z 09006KT 22/17 A302 RMK A01 T02160171  RH  075%=      5-min Rain = 0
KEA1 140641Z 08006KT 22/17 A302 RMK A01 T02170171  RH  075%=      5-min Rain = 0
KEA1 140642Z 09005KT 22/17 A302 RMK A01 T02170171  RH  075%=      5-min Rain = 0
KEA1 140643Z 09005KT 22/17 A302 RMK A01 T02180172  RH  075%=      5-min Rain = 0
KEA1 140644Z 08006KT 22/17 A302 RMK A01 T02180172  RH  075%=      5-min Rain = 0
KEA1 140645Z 09006KT 22/17 A302 RMK A01 T02180172  RH  075%=      5-min Rain = 0
KEA1 140646Z 08006KT 22/17 A302 RMK A01 T02190172  RH  075%=      5-min Rain = 0
KEA1 140647Z 09005KT 22/17 A302 RMK A01 T02190172  RH  075%=      5-min Rain = 0
KEA1 140648Z 09005KT 22/17 A302 RMK A01 T02190172  RH  075%=      5-min Rain = 0
KEA1 140649Z 09006KT 22/17 A302 RMK A01 T02190173  RH  075%=      5-min Rain = 0
KEA1 140650Z 09006KT 22/17 A302 RMK A01 T02190173  RH  075%=      5-min Rain = 0
KEA1 140651Z 09006KT 22/17 A302 RMK A01 T02190173  RH  075%=      5-min Rain = 0
KEA1 140652Z 09006KT 22/17 A302 RMK A01 T02180173  RH  075%=      5-min Rain = 0
KEA1 140653Z 09006KT 22/17 A302 RMK A01 T02190173  RH  075%=      5-min Rain = 0
KEA1 140654Z 09006KT 22/17 A302 RMK A01 T02180173  RH  076%=      5-min Rain = 0
KEA1 140655Z 09006KT 22/17 A302 RMK A01 T02190174  RH  076%=      5-min Rain = 0
KEA1 140656Z 09005KT 22/17 A3021 RMK A01 T02190174  RH  076%=      5-min Rain = 0
KEA1 140657Z 08006KT 22/18 A3021 RMK A01 T02190175  RH  076%=      5-min Rain = 0
KEA1 140658Z 08006KT 22/18 A3021 RMK A01 T02190175  RH  076%=      5-min Rain = 0
KEA1 140659Z 08006KT 22/18 A3021 RMK A01 T02190175  RH  076%=      5-min Rain = 0
KEA1 140700Z 08007KT 22/18 A3021 RMK A01 T02190175  RH  076%=      5-min Rain = 0
KEA1 140701Z 07007KT 22/18 A3021 RMK A01 T02180175  RH  076%=      5-min Rain = 0
KEA1 140702Z 08007KT 22/18 A3021 RMK A01 T02180175  RH  077%=      5-min Rain = 0
KEA1 140703Z 07009KT 22/18 A3021 RMK A01 T02180175  RH  077%=      5-min Rain = 0
KEA1 140704Z 08007KT 22/18 A3021 RMK A01 T02180176  RH  077%=      5-min Rain = 0
KEA1 140705Z 08008KT 22/18 A3021 RMK A01 T02180176  RH  077%=      5-min Rain = 0
KEA1 140706Z 08009KT 22/18 A3021 RMK A01 T02190176  RH  077%=      5-min Rain = 0
KEA1 140707Z 08007KT 22/18 A3021 RMK A01 T02190176  RH  077%=      5-min Rain = 0
KEA1 140708Z 08008KT 22/18 A3021 RMK A01 T02190176  RH  076%=      5-min Rain = 0
KEA1 140709Z 08008KT 22/18 A3021 RMK A01 T02200176  RH  076%=      5-min Rain = 0
KEA1 140710Z 07008KT 22/18 A3021 RMK A01 T02200176  RH  076%=      5-min Rain = 0
KEA1 140711Z 07008KT 22/18 A3021 RMK A01 T02200176  RH  076%=      5-min Rain = 0
KEA1 140712Z 07009KT 22/18 A3021 RMK A01 T02200176  RH  076%=      5-min Rain = 0
KEA1 140713Z 07010KT 22/18 A3021 RMK A01 T02200176  RH  076%=      5-min Rain = 0
KEA1 140714Z 07010KT 22/18 A3021 RMK A01 T02210177  RH  076%=      5-min Rain = 0
KEA1 140715Z 07009KT 22/18 A3021 RMK A01 T02210177  RH  076%=      5-min Rain = 0
KEA1 140716Z 07010KT 22/18 A3021 RMK A01 T02220177  RH  076%=      5-min Rain = 0
KEA1 140717Z 07011KT 22/18 A302 RMK A01 T02220177  RH  076%=      5-min Rain = 0
KEA1 140718Z 07010KT 22/18 A302 RMK A01 T02220177  RH  075%=      5-min Rain = 0
KEA1 140719Z 08008KT 22/18 A302 RMK A01 T02230177  RH  075%=      5-min Rain = 0
KEA1 140720Z 07008KT 22/18 A302 RMK A01 T02230177  RH  075%=      5-min Rain = 0
KEA1 140721Z 07009KT 22/18 A302 RMK A01 T02230177  RH  075%=      5-min Rain = 0
KEA1 140722Z 07009KT 22/18 A302 RMK A01 T02220177  RH  075%=      5-min Rain = 0
KEA1 140723Z 07008KT 22/18 A302 RMK A01 T02220177  RH  076%=      5-min Rain = 0
KEA1 140724Z 07008KT 22/18 A302 RMK A01 T02210177  RH  076%=      5-min Rain = 0
KEA1 140725Z 08008KT 22/18 A302 RMK A01 T02210178  RH  076%=      5-min Rain = 0
KEA1 140726Z 07009KT 22/18 A302 RMK A01 T02220178  RH  076%=      5-min Rain = 0
KEA1 140727Z 07010KT 22/18 A302 RMK A01 T02220178  RH  076%=      5-min Rain = 0
KEA1 140728Z 08010KT 22/18 A3021 RMK A01 T02220178  RH  076%=      5-min Rain = 0
KEA1 140729Z 07010KT 22/18 A3021 RMK A01 T02220179  RH  076%=      5-min Rain = 0
KEA1 140730Z 07009KT 22/18 A3021 RMK A01 T02230178  RH  076%=      5-min Rain = 0
KEA1 140731Z 07009KT 22/18 A3021 RMK A01 T02230179  RH  076%=      5-min Rain = 0
KEA1 140732Z 08009KT 22/18 A3021 RMK A01 T02220179  RH  076%=      5-min Rain = 0
KEA1 140733Z 07011KT 22/18 A302 RMK A01 T02230179  RH  077%=      5-min Rain = 0
KEA1 140734Z 07011KT 22/18 A302 RMK A01 T02220179  RH  077%=      5-min Rain = 0
KEA1 140735Z 08010KT 22/18 A302 RMK A01 T02220179  RH  077%=      5-min Rain = 0
KEA1 140736Z 07010KT 22/18 A302 RMK A01 T02220179  RH  077%=      5-min Rain = 0
KEA1 140737Z 07009KT 22/18 A302 RMK A01 T02230180  RH  077%=      5-min Rain = 0
KEA1 140738Z 07010KT 22/18 A302 RMK A01 T02230180  RH  077%=      5-min Rain = 0
KEA1 140739Z 07008KT 22/18 A302 RMK A01 T02220179  RH  077%=      5-min Rain = 0
KEA1 140740Z 07009KT 22/18 A3021 RMK A01 T02220180  RH  077%=      5-min Rain = 0
KEA1 140741Z 08009KT 22/18 A3021 RMK A01 T02210180  RH  077%=      5-min Rain = 0
KEA1 140742Z 07008KT 22/18 A3021 RMK A01 T02210179  RH  077%=      5-min Rain = 0
KEA1 140743Z 07009KT 22/18 A3021 RMK A01 T02210180  RH  077%=      5-min Rain = 0
KEA1 140744Z 08009KT 22/18 A3021 RMK A01 T02210180  RH  077%=      5-min Rain = 0
KEA1 140745Z 07009KT 22/18 A3021 RMK A01 T02210180  RH  078%=      5-min Rain = 0
KEA1 140746Z 07009KT 22/18 A3021 RMK A01 T02200180  RH  078%=      5-min Rain = 0
KEA1 140747Z 08008KT 22/18 A3021 RMK A01 T02210180  RH  078%=      5-min Rain = 0
KEA1 140748Z 08009KT 22/18 A3021 RMK A01 T02200179  RH  078%=      5-min Rain = 0
KEA1 140749Z 08008KT 22/18 A3021 RMK A01 T02200180  RH  078%=      5-min Rain = 0
KEA1 140750Z 08008KT 22/18 A3021 RMK A01 T02210180  RH  078%=      5-min Rain = 0
KEA1 140751Z 08007KT 22/18 A3021 RMK A01 T02200180  RH  078%=      5-min Rain = 0
KEA1 140752Z 08007KT 22/18 A3021 RMK A01 T02200180  RH  078%=      5-min Rain = 0
KEA1 140753Z 08007KT 22/18 A302 RMK A01 T02190180  RH  078%=      5-min Rain = 0
KEA1 140754Z 08008KT 22/18 A302 RMK A01 T02190180  RH  078%=      5-min Rain = 0
KEA1 140755Z 09006KT 22/18 A302 RMK A01 T02190180  RH  078%=      5-min Rain = 0
KEA1 140756Z 09006KT 22/18 A302 RMK A01 T02190180  RH  078%=      5-min Rain = 0
KEA1 140757Z 09006KT 22/18 A302 RMK A01 T02190180  RH  078%=      5-min Rain = 0
KEA1 140758Z 08007KT 22/18 A302 RMK A01 T02190180  RH  078%=      5-min Rain = 0
KEA1 140759Z 08007KT 22/18 A302 RMK A01 T02190180  RH  079%=      5-min Rain = 0
KEA1 140800Z 08008KT 22/18 A302 RMK A01 T02190180  RH  079%=      5-min Rain = 0
KEA1 140801Z 09006KT 22/18 A302 RMK A01 T02190179  RH  078%=      5-min Rain = 0
KEA1 140802Z 09006KT 22/18 A302 RMK A01 T02190180  RH  078%=      5-min Rain = 0
KEA1 140803Z 09007KT 22/18 A302 RMK A01 T02190180  RH  078%=      5-min Rain = 0
KEA1 140804Z 08006KT 22/18 A302 RMK A01 T02180180  RH  079%=      5-min Rain = 0
KEA1 140805Z 08007KT 22/18 A302 RMK A01 T02180180  RH  079%=      5-min Rain = 0
KEA1 140806Z 08008KT 22/18 A302 RMK A01 T02180179  RH  079%=      5-min Rain = 0
KEA1 140807Z 08008KT 22/18 A302 RMK A01 T02170180  RH  079%=      5-min Rain = 0
KEA1 140808Z 08008KT 22/18 A302 RMK A01 T02170180  RH  079%=      5-min Rain = 0
KEA1 140809Z 08009KT 22/18 A302 RMK A01 T02170179  RH  079%=      5-min Rain = 0
KEA1 140810Z 07010KT 22/18 A302 RMK A01 T02170180  RH  079%=      5-min Rain = 0
KEA1 140811Z 08009KT 22/18 A302 RMK A01 T02170179  RH  079%=      5-min Rain = 0
KEA1 140812Z 07010KT 22/18 A302 RMK A01 T02170180  RH  079%=      5-min Rain = 0
KEA1 140813Z 07009KT 22/18 A302 RMK A01 T02170180  RH  079%=      5-min Rain = 0
KEA1 140814Z 08008KT 22/18 A302 RMK A01 T02180180  RH  079%=      5-min Rain = 0
KEA1 140815Z 07009KT 22/18 A302 RMK A01 T02170180  RH  079%=      5-min Rain = 0
KEA1 140816Z 08008KT 22/18 A302 RMK A01 T02170180  RH  079%=      5-min Rain = 0
KEA1 140817Z 07009KT 22/18 A302 RMK A01 T02170179  RH  079%=      5-min Rain = 0
KEA1 140818Z 08008KT 22/18 A302 RMK A01 T02170180  RH  079%=      5-min Rain = 0
KEA1 140819Z 08007KT 22/18 A302 RMK A01 T02170179  RH  079%=      5-min Rain = 0
KEA1 140820Z 08008KT 22/18 A302 RMK A01 T02170179  RH  079%=      5-min Rain = 0
KEA1 140821Z 08008KT 22/18 A302 RMK A01 T02170179  RH  079%=      5-min Rain = 0
KEA1 140822Z 07007KT 22/18 A3019 RMK A01 T02170179  RH  079%=      5-min Rain = 0
KEA1 140823Z 08008KT 22/18 A3019 RMK A01 T02160179  RH  080%=      5-min Rain = 0
KEA1 140824Z 08006KT 22/18 A3019 RMK A01 T02160179  RH  080%=      5-min Rain = 0
KEA1 140825Z 08007KT 22/18 A3019 RMK A01 T02150179  RH  080%=      5-min Rain = 0
KEA1 140826Z 08007KT 22/18 A3019 RMK A01 T02150179  RH  080%=      5-min Rain = 0
KEA1 140827Z 08007KT 22/18 A3019 RMK A01 T02150179  RH  080%=      5-min Rain = 0
KEA1 140828Z 08006KT 22/18 A3019 RMK A01 T02150179  RH  080%=      5-min Rain = 0
KEA1 140829Z 08007KT 22/18 A3019 RMK A01 T02150179  RH  080%=      5-min Rain = 0
KEA1 140830Z 08006KT 21/18 A3019 RMK A01 T02140179  RH  080%=      5-min Rain = 0
KEA1 140831Z 08006KT 21/18 A3019 RMK A01 T02140179  RH  080%=      5-min Rain = 0
KEA1 140832Z 09005KT 21/18 A3019 RMK A01 T02140179  RH  080%=      5-min Rain = 0
KEA1 140833Z 08005KT 21/18 A3019 RMK A01 T02130178  RH  081%=      5-min Rain = 0
KEA1 140834Z 09005KT 21/18 A3019 RMK A01 T02130178  RH  081%=      5-min Rain = 0
KEA1 140835Z 08005KT 21/18 A3019 RMK A01 T02120178  RH  081%=      5-min Rain = 0
KEA1 140836Z 09005KT 21/18 A3019 RMK A01 T02130179  RH  081%=      5-min Rain = 0
KEA1 140837Z 08005KT 21/18 A3019 RMK A01 T02120178  RH  081%=      5-min Rain = 0
KEA1 140838Z 08005KT 21/18 A3019 RMK A01 T02120178  RH  081%=      5-min Rain = 0
KEA1 140839Z 08006KT 21/18 A3019 RMK A01 T02120178  RH  081%=      5-min Rain = 0
KEA1 140840Z 07006KT 21/18 A3019 RMK A01 T02110178  RH  081%=      5-min Rain = 0
KEA1 140841Z 07006KT 21/18 A3019 RMK A01 T02110178  RH  082%=      5-min Rain = 0
KEA1 140842Z 07005KT 21/18 A3019 RMK A01 T02100178  RH  082%=      5-min Rain = 0
KEA1 140843Z 06006KT 21/18 A3019 RMK A01 T02110178  RH  082%=      5-min Rain = 0
KEA1 140844Z 06006KT 21/18 A3019 RMK A01 T02100178  RH  082%=      5-min Rain = 0
KEA1 140845Z 06005KT 21/18 A3019 RMK A01 T02100178  RH  082%=      5-min Rain = 0
KEA1 140846Z 06005KT 21/18 A3019 RMK A01 T02100178  RH  082%=      5-min Rain = 0
KEA1 140847Z 06005KT 21/18 A3019 RMK A01 T02100178  RH  082%=      5-min Rain = 0
KEA1 140848Z 06006KT 21/18 A3019 RMK A01 T02090178  RH  082%=      5-min Rain = 0
KEA1 140849Z 06005KT 21/18 A3019 RMK A01 T02090178  RH  082%=      5-min Rain = 0
KEA1 140850Z 06006KT 21/18 A302 RMK A01 T02090178  RH  082%=      5-min Rain = 0
KEA1 140851Z 06006KT 21/18 A302 RMK A01 T02080177  RH  082%=      5-min Rain = 0
KEA1 140852Z 05005KT 21/18 A302 RMK A01 T02080177  RH  083%=      5-min Rain = 0
KEA1 140853Z 05006KT 21/18 A302 RMK A01 T02080177  RH  083%=      5-min Rain = 0
KEA1 140854Z 05005KT 21/18 A302 RMK A01 T02070177  RH  083%=      5-min Rain = 0
KEA1 140855Z 05006KT 21/18 A302 RMK A01 T02070177  RH  083%=      5-min Rain = 0
KEA1 140856Z 05006KT 21/18 A302 RMK A01 T02060176  RH  083%=      5-min Rain = 0
KEA1 140857Z 06006KT 21/18 A302 RMK A01 T02060177  RH  083%=      5-min Rain = 0
KEA1 140858Z 06005KT 21/18 A302 RMK A01 T02060177  RH  083%=      5-min Rain = 0
KEA1 140859Z 07006KT 21/18 A302 RMK A01 T02060177  RH  083%=      5-min Rain = 0
KEA1 140900Z 07005KT 21/18 A302 RMK A01 T02060177  RH  084%=      5-min Rain = 0
KEA1 140901Z 07005KT 21/18 A302 RMK A01 T02060177  RH  083%=      5-min Rain = 0
KEA1 140902Z 07006KT 21/18 A302 RMK A01 T02060177  RH  083%=      5-min Rain = 0
KEA1 140903Z 07006KT 21/18 A302 RMK A01 T02050176  RH  084%=      5-min Rain = 0
KEA1 140904Z 07006KT 21/18 A302 RMK A01 T02050177  RH  084%=      5-min Rain = 0
KEA1 140905Z 07006KT 21/18 A302 RMK A01 T02050176  RH  084%=      5-min Rain = 0
KEA1 140906Z 07006KT 20/18 A302 RMK A01 T02040176  RH  084%=      5-min Rain = 0
KEA1 140907Z 07006KT 20/18 A302 RMK A01 T02040176  RH  084%=      5-min Rain = 0
KEA1 140908Z 07006KT 20/18 A302 RMK A01 T02040176  RH  084%=      5-min Rain = 0
KEA1 140909Z 08006KT 20/18 A302 RMK A01 T02040176  RH  084%=      5-min Rain = 0
KEA1 140910Z 08006KT 20/18 A302 RMK A01 T02040176  RH  084%=      5-min Rain = 0
KEA1 140911Z 08006KT 20/18 A302 RMK A01 T02040176  RH  084%=      5-min Rain = 0
KEA1 140912Z 08005KT 20/18 A302 RMK A01 T02040176  RH  084%=      5-min Rain = 0
KEA1 140913Z 08004KT 20/18 A302 RMK A01 T02040176  RH  084%=      5-min Rain = 0
KEA1 140914Z 08004KT 20/18 A302 RMK A01 T02040177  RH  084%=      5-min Rain = 0
KEA1 140915Z 08005KT 20/18 A3021 RMK A01 T02040177  RH  084%=      5-min Rain = 0
KEA1 140916Z 08005KT 20/18 A3021 RMK A01 T02040176  RH  084%=      5-min Rain = 0
KEA1 140917Z 08005KT 20/18 A3021 RMK A01 T02040176  RH  084%=      5-min Rain = 0
KEA1 140918Z 08006KT 20/18 A3021 RMK A01 T02040176  RH  084%=      5-min Rain = 0
KEA1 140919Z 08006KT 20/18 A3021 RMK A01 T02030176  RH  084%=      5-min Rain = 0
KEA1 140920Z 07006KT 20/18 A3021 RMK A01 T02030176  RH  084%=      5-min Rain = 0
KEA1 140921Z 07006KT 20/18 A3021 RMK A01 T02030176  RH  084%=      5-min Rain = 0
KEA1 140922Z 07006KT 20/18 A302 RMK A01 T02030176  RH  085%=      5-min Rain = 0
KEA1 140923Z 07006KT 20/18 A302 RMK A01 T02020176  RH  085%=      5-min Rain = 0
KEA1 140924Z 07006KT 20/18 A302 RMK A01 T02020176  RH  085%=      5-min Rain = 0
KEA1 140925Z 07006KT 20/18 A302 RMK A01 T02020176  RH  085%=      5-min Rain = 0
KEA1 140926Z 06006KT 20/18 A302 RMK A01 T02020176  RH  085%=      5-min Rain = 0
KEA1 140927Z 06007KT 20/18 A302 RMK A01 T02020176  RH  085%=      5-min Rain = 0
KEA1 140928Z 06007KT 20/18 A302 RMK A01 T02020176  RH  085%=      5-min Rain = 0
KEA1 140929Z 06007KT 20/18 A302 RMK A01 T02020176  RH  085%=      5-min Rain = 0
KEA1 140930Z 06007KT 20/18 A302 RMK A01 T02020176  RH  085%=      5-min Rain = 0
KEA1 140931Z 05007KT 20/18 A302 RMK A01 T02020176  RH  085%=      5-min Rain = 0
KEA1 140932Z 06007KT 20/18 A302 RMK A01 T02030176  RH  084%=      5-min Rain = 0
KEA1 140933Z 06007KT 20/18 A3021 RMK A01 T02030176  RH  084%=      5-min Rain = 0
KEA1 140934Z 06007KT 20/18 A3021 RMK A01 T02040176  RH  084%=      5-min Rain = 0
KEA1 140935Z 06007KT 20/18 A3021 RMK A01 T02040176  RH  084%=      5-min Rain = 0
KEA1 140936Z 06007KT 21/18 A3021 RMK A01 T02050176  RH  084%=      5-min Rain = 0
KEA1 140937Z 06007KT 20/18 A3021 RMK A01 T02040176  RH  084%=      5-min Rain = 0
KEA1 140938Z 06007KT 20/18 A3021 RMK A01 T02040176  RH  084%=      5-min Rain = 0
KEA1 140939Z 06008KT 20/18 A3021 RMK A01 T02040176  RH  084%=      5-min Rain = 0
KEA1 140940Z 06007KT 21/18 A3021 RMK A01 T02050176  RH  083%=      5-min Rain = 0
KEA1 140941Z 06007KT 21/18 A3021 RMK A01 T02050176  RH  083%=      5-min Rain = 0
KEA1 140942Z 06008KT 21/18 A3021 RMK A01 T02050175  RH  083%=      5-min Rain = 0
KEA1 140943Z 05008KT 21/18 A3021 RMK A01 T02050175  RH  083%=      5-min Rain = 0
KEA1 140944Z 05009KT 21/18 A3021 RMK A01 T02050175  RH  083%=      5-min Rain = 0
KEA1 140945Z 05008KT 21/18 A3021 RMK A01 T02050175  RH  083%=      5-min Rain = 0
KEA1 140946Z 05009KT 21/18 A3021 RMK A01 T02050175  RH  083%=      5-min Rain = 0
KEA1 140947Z 04010KT 21/18 A3021 RMK A01 T02050175  RH  083%=      5-min Rain = 0
KEA1 140948Z 04009KT 21/18 A3021 RMK A01 T02050175  RH  083%=      5-min Rain = 0
KEA1 140949Z 04010KT 20/18 A3021 RMK A01 T02040175  RH  083%=      5-min Rain = 0
KEA1 140950Z 04010KT 20/18 A3021 RMK A01 T02040175  RH  083%=      5-min Rain = 0
KEA1 140951Z 04009KT 20/18 A3021 RMK A01 T02040175  RH  083%=      5-min Rain = 0
KEA1 140952Z 04010KT 20/17 A3021 RMK A01 T02030174  RH  083%=      5-min Rain = 0
KEA1 140953Z 04009KT 20/17 A3021 RMK A01 T02030174  RH  083%=      5-min Rain = 0
KEA1 140954Z 04010KT 20/17 A3021 RMK A01 T02030174  RH  084%=      5-min Rain = 0
KEA1 140955Z 05010KT 20/17 A3021 RMK A01 T02020174  RH  084%=      5-min Rain = 0
KEA1 140956Z 04011KT 20/17 A3021 RMK A01 T02030174  RH  084%=      5-min Rain = 0
KEA1 140957Z 04010KT 20/17 A3021 RMK A01 T02020173  RH  083%=      5-min Rain = 0
KEA1 140958Z 05011KT 20/17 A3021 RMK A01 T02030173  RH  083%=      5-min Rain = 0
KEA1 140959Z 04011KT 20/17 A3021 RMK A01 T02030173  RH  083%=      5-min Rain = 0
KEA1 141000Z 05011KT 20/17 A3022 RMK A01 T02030173  RH  083%=      5-min Rain = 0
KEA1 141001Z 04012KT 20/17 A3022 RMK A01 T02030173  RH  083%=      5-min Rain = 0
KEA1 141002Z 04012KT 20/17 A3022 RMK A01 T02030173  RH  083%=      5-min Rain = 0
KEA1 141003Z 04012KT 20/17 A3022 RMK A01 T02030173  RH  083%=      5-min Rain = 0
KEA1 141004Z 05010KT 20/17 A3022 RMK A01 T02040173  RH  083%=      5-min Rain = 0
KEA1 141005Z 05011KT 20/17 A3022 RMK A01 T02040173  RH  083%=      5-min Rain = 0
KEA1 141006Z 05009KT 20/17 A3022 RMK A01 T02040173  RH  083%=      5-min Rain = 0
KEA1 141007Z 05010KT 20/17 A3022 RMK A01 T02040174  RH  083%=      5-min Rain = 0
KEA1 141008Z 05010KT 20/17 A3022 RMK A01 T02040173  RH  083%=      5-min Rain = 0
KEA1 141009Z 04009KT 20/17 A3022 RMK A01 T02040173  RH  083%=      5-min Rain = 0
KEA1 141010Z 04009KT 20/17 A3023 RMK A01 T02040173  RH  083%=      5-min Rain = 0
KEA1 141011Z 04012KT 20/17 A3023 RMK A01 T02040173  RH  083%=      5-min Rain = 0
KEA1 141012Z 05012KT 20/17 A3022 RMK A01 T02040173  RH  082%=      5-min Rain = 0
KEA1 141013Z 05011KT 21/17 A3023 RMK A01 T02050173  RH  081%=      5-min Rain = 0
KEA1 141014Z 04011KT 21/17 A3023 RMK A01 T02060172  RH  081%=      5-min Rain = 0
KEA1 141015Z 05012KT 21/17 A3023 RMK A01 T02060172  RH  081%=      5-min Rain = 0
KEA1 141016Z 05011KT 21/17 A3022 RMK A01 T02060172  RH  081%=      5-min Rain = 0
KEA1 141017Z 04010KT 21/17 A3022 RMK A01 T02060172  RH  081%=      5-min Rain = 0
KEA1 141018Z 05010KT 21/17 A3022 RMK A01 T02050172  RH  081%=      5-min Rain = 0
KEA1 141019Z 04011KT 20/17 A3022 RMK A01 T02040172  RH  081%=      5-min Rain = 0
KEA1 141020Z 04012KT 20/17 A3022 RMK A01 T02040172  RH  081%=      5-min Rain = 0
KEA1 141021Z 05013KT 20/17 A3022 RMK A01 T02040171  RH  081%=      5-min Rain = 0
KEA1 141022Z 05011KT 20/17 A3022 RMK A01 T02040171  RH  081%=      5-min Rain = 0
KEA1 141023Z 04011KT 20/17 A3022 RMK A01 T02030170  RH  081%=      5-min Rain = 0
KEA1 141024Z 05010KT 20/17 A3022 RMK A01 T02030169  RH  081%=      5-min Rain = 0
KEA1 141025Z 05013KT 20/17 A3023 RMK A01 T02030168  RH  081%=      5-min Rain = 0
KEA1 141026Z 05013KT 20/17 A3023 RMK A01 T02020167  RH  080%=      5-min Rain = 0
KEA1 141027Z 05013KT 20/17 A3023 RMK A01 T02030166  RH  079%=      5-min Rain = 0
KEA1 141028Z 05012KT 20/17 A3023 RMK A01 T02020165  RH  079%=      5-min Rain = 0
KEA1 141029Z 05013G18KT 20/17 A3023 RMK A01 T02020165  RH  079%=      5-min Rain = 0
KEA1 141030Z 05013KT 20/16 A3023 RMK A01 T02020164  RH  079%=      5-min Rain = 0
KEA1 141031Z 05013KT 20/16 A3023 RMK A01 T02020164  RH  079%=      5-min Rain = 0
KEA1 141032Z 05011KT 20/16 A3023 RMK A01 T02020163  RH  079%=      5-min Rain = 0
KEA1 141033Z 04012KT 20/16 A3023 RMK A01 T02010163  RH  078%=      5-min Rain = 0
KEA1 141034Z 04012KT 20/16 A3023 RMK A01 T02010163  RH  079%=      5-min Rain = 0
KEA1 141035Z 04011KT 20/16 A3023 RMK A01 T02000162  RH  079%=      5-min Rain = 0
KEA1 141036Z 04014KT 20/16 A3023 RMK A01 T02000162  RH  079%=      5-min Rain = 0
KEA1 141037Z 04012KT 20/16 A3023 RMK A01 T02000162  RH  079%=      5-min Rain = 0
KEA1 141038Z 04012KT 20/16 A3023 RMK A01 T02000162  RH  079%=      5-min Rain = 0
KEA1 141039Z 04012KT 20/16 A3023 RMK A01 T02000162  RH  079%=      5-min Rain = 0
KEA1 141040Z 04012KT 20/16 A3023 RMK A01 T02000160  RH  078%=      5-min Rain = 0
KEA1 141041Z 05011KT 20/16 A3024 RMK A01 T01990159  RH  078%=      5-min Rain = 0
KEA1 141042Z 05012KT 20/16 A3023 RMK A01 T01990159  RH  077%=      5-min Rain = 0
KEA1 141043Z 05010G15KT 20/16 A3023 RMK A01 T01990156  RH  077%=      5-min Rain = 0
KEA1 141044Z 05012KT 20/16 A3023 RMK A01 T01990155  RH  076%=      5-min Rain = 0
KEA1 141045Z 05011KT 20/16 A3023 RMK A01 T01990155  RH  076%=      5-min Rain = 0
KEA1 141046Z 05011KT 20/15 A3023 RMK A01 T01990154  RH  075%=      5-min Rain = 0
KEA1 141047Z 05012KT 20/15 A3023 RMK A01 T01980154  RH  075%=      5-min Rain = 0
KEA1 141048Z 05014KT 20/15 A3023 RMK A01 T01980152  RH  075%=      5-min Rain = 0
KEA1 141049Z 05014KT 20/15 A3023 RMK A01 T01980150  RH  074%=      5-min Rain = 0
KEA1 141050Z 05013KT 20/15 A3023 RMK A01 T01980150  RH  074%=      5-min Rain = 0
KEA1 141051Z 04014KT 20/15 A3023 RMK A01 T01980150  RH  074%=      5-min Rain = 0
KEA1 141052Z 04013KT 20/15 A3023 RMK A01 T01980149  RH  073%=      5-min Rain = 0
KEA1 141053Z 05012KT 20/15 A3023 RMK A01 T01970148  RH  073%=      5-min Rain = 0
KEA1 141054Z 05011G16KT 20/15 A3023 RMK A01 T01970148  RH  073%=      5-min Rain = 0
KEA1 141055Z 05012KT 20/15 A3023 RMK A01 T01970148  RH  073%=      5-min Rain = 0
KEA1 141056Z 04012KT 20/15 A3023 RMK A01 T01960148  RH  073%=      5-min Rain = 0
KEA1 141057Z 04012KT 20/15 A3023 RMK A01 T01960148  RH  073%=      5-min Rain = 0
KEA1 141058Z 04011KT 20/15 A3024 RMK A01 T01960147  RH  073%=      5-min Rain = 0
KEA1 141059Z 04011KT 20/15 A3024 RMK A01 T01950147  RH  074%=      5-min Rain = 0
KEA1 141100Z 04011KT 20/15 A3024 RMK A01 T01950147  RH  074%=      5-min Rain = 0
KEA1 141101Z 04011KT 20/15 A3024 RMK A01 T01950147  RH  074%=      5-min Rain = 0
KEA1 141102Z 04010KT 19/15 A3024 RMK A01 T01940147  RH  074%=      5-min Rain = 0
KEA1 141103Z 04009KT 19/15 A3024 RMK A01 T01940147  RH  074%=      5-min Rain = 0
KEA1 141104Z 04010KT 19/15 A3024 RMK A01 T01930147  RH  074%=      5-min Rain = 0
KEA1 141105Z 04009KT 19/15 A3024 RMK A01 T01930146  RH  074%=      5-min Rain = 0
KEA1 141106Z 05011KT 19/15 A3024 RMK A01 T01920146  RH  074%=      5-min Rain = 0
KEA1 141107Z 04012KT 19/15 A3024 RMK A01 T01920145  RH  074%=      5-min Rain = 0
KEA1 141108Z 04012KT 19/14 A3024 RMK A01 T01920144  RH  074%=      5-min Rain = 0
KEA1 141109Z 04013KT 19/14 A3024 RMK A01 T01920144  RH  074%=      5-min Rain = 0
KEA1 141110Z 04010KT 19/14 A3024 RMK A01 T01920144  RH  074%=      5-min Rain = 0
KEA1 141111Z 03011KT 19/15 A3024 RMK A01 T01920145  RH  074%=      5-min Rain = 0
KEA1 141112Z 03009KT 19/15 A3024 RMK A01 T01920145  RH  074%=      5-min Rain = 0
KEA1 141113Z 03013KT 19/14 A3024 RMK A01 T01920144  RH  074%=      5-min Rain = 0
KEA1 141114Z 04012KT 19/14 A3024 RMK A01 T01920143  RH  074%=      5-min Rain = 0
KEA1 141115Z 03009KT 19/14 A3024 RMK A01 T01920143  RH  073%=      5-min Rain = 0
KEA1 141116Z 04010KT 19/14 A3025 RMK A01 T01910143  RH  073%=      5-min Rain = 0
KEA1 141117Z 03010KT 19/14 A3025 RMK A01 T01920143  RH  073%=      5-min Rain = 0
KEA1 141118Z 04011KT 19/14 A3025 RMK A01 T01910142  RH  073%=      5-min Rain = 0
KEA1 141119Z 04010KT 19/14 A3025 RMK A01 T01920141  RH  073%=      5-min Rain = 0
KEA1 141120Z 03009G14KT 19/14 A3025 RMK A01 T01920141  RH  072%=      5-min Rain = 0
KEA1 141121Z 04011KT 19/14 A3025 RMK A01 T01920141  RH  072%=      5-min Rain = 0
KEA1 141122Z 04011KT 19/14 A3025 RMK A01 T01930140  RH  072%=      5-min Rain = 0
KEA1 141123Z 04009KT 19/14 A3025 RMK A01 T01930140  RH  071%=      5-min Rain = 0
KEA1 141124Z 03008KT 19/14 A3025 RMK A01 T01930140  RH  071%=      5-min Rain = 0
KEA1 141125Z 04011KT 19/14 A3025 RMK A01 T01930140  RH  071%=      5-min Rain = 0
KEA1 141126Z 03012KT 19/14 A3025 RMK A01 T01930139  RH  071%=      5-min Rain = 0
KEA1 141127Z 04012KT 19/14 A3025 RMK A01 T01940139  RH  071%=      5-min Rain = 0
KEA1 141128Z 03012KT 19/14 A3025 RMK A01 T01940139  RH  071%=      5-min Rain = 0
KEA1 141129Z 03010KT 19/14 A3026 RMK A01 T01940139  RH  070%=      5-min Rain = 0
KEA1 141130Z 04009KT 19/14 A3026 RMK A01 T01940139  RH  070%=      5-min Rain = 0
KEA1 141131Z 03010KT 19/14 A3026 RMK A01 T01940139  RH  070%=      5-min Rain = 0
KEA1 141132Z 03008KT 19/14 A3026 RMK A01 T01940139  RH  070%=      5-min Rain = 0
KEA1 141133Z 04008KT 19/14 A3026 RMK A01 T01940139  RH  070%=      5-min Rain = 0
KEA1 141134Z 04009KT 20/14 A3026 RMK A01 T01950139  RH  070%=      5-min Rain = 0
KEA1 141135Z 03009KT 20/14 A3026 RMK A01 T01950138  RH  070%=      5-min Rain = 0
KEA1 141136Z 04009KT 20/14 A3026 RMK A01 T01950138  RH  069%=      5-min Rain = 0
KEA1 141137Z 05011KT 20/14 A3026 RMK A01 T01950137  RH  069%=      5-min Rain = 0
KEA1 141138Z 04009KT 20/14 A3026 RMK A01 T01960137  RH  069%=      5-min Rain = 0
KEA1 141139Z 05010KT 20/14 A3026 RMK A01 T01960137  RH  069%=      5-min Rain = 0
KEA1 141140Z 05011KT 20/14 A3026 RMK A01 T01960136  RH  068%=      5-min Rain = 0
KEA1 141141Z 05011KT 20/14 A3026 RMK A01 T01960136  RH  068%=      5-min Rain = 0
KEA1 141142Z 05009KT 20/14 A3027 RMK A01 T01960135  RH  068%=      5-min Rain = 0
KEA1 141143Z 06008KT 20/14 A3027 RMK A01 T01970136  RH  068%=      5-min Rain = 0
KEA1 141144Z 06008KT 20/14 A3027 RMK A01 T01960136  RH  068%=      5-min Rain = 0
KEA1 141145Z 06008KT 20/14 A3027 RMK A01 T01970136  RH  068%=      5-min Rain = 0
KEA1 141146Z 06008KT 20/14 A3027 RMK A01 T01970136  RH  068%=      5-min Rain = 0
KEA1 141147Z 06010KT 20/14 A3027 RMK A01 T01970135  RH  068%=      5-min Rain = 0
KEA1 141148Z 05008KT 20/14 A3027 RMK A01 T01970135  RH  067%=      5-min Rain = 0
KEA1 141149Z 06010KT 20/14 A3027 RMK A01 T01970135  RH  067%=      5-min Rain = 0
KEA1 141150Z 05010KT 20/13 A3027 RMK A01 T01970134  RH  067%=      5-min Rain = 0
KEA1 141151Z 06010KT 20/14 A3027 RMK A01 T01970135  RH  067%=      5-min Rain = 0
KEA1 141152Z 06011KT 20/13 A3027 RMK A01 T01980134  RH  067%=      5-min Rain = 0
KEA1 141153Z 05010KT 20/13 A3027 RMK A01 T01980134  RH  067%=      5-min Rain = 0
KEA1 141154Z 05010KT 20/13 A3027 RMK A01 T01980134  RH  067%=      5-min Rain = 0
KEA1 141155Z 05011KT 20/13 A3027 RMK A01 T01980133  RH  066%=      5-min Rain = 0
KEA1 141156Z 05010KT 20/13 A3027 RMK A01 T01980133  RH  066%=      5-min Rain = 0
KEA1 141157Z 05011KT 20/13 A3027 RMK A01 T01990134  RH  066%=      5-min Rain = 0
KEA1 141158Z 06011KT 20/13 A3027 RMK A01 T01980133  RH  066%=      5-min Rain = 0
KEA1 141159Z 06010KT 20/13 A3027 RMK A01 T01980133  RH  066%=      5-min Rain = 0
KEA1 141200Z 06012KT 20/13 A3027 RMK A01 T01990133  RH  066%=      5-min Rain = 0
KEA1 141201Z 06010KT 20/13 A3026 RMK A01 T01990133  RH  066%=      5-min Rain = 0
KEA1 141202Z 06010KT 20/13 A3026 RMK A01 T01980132  RH  066%=      5-min Rain = 0
KEA1 141203Z 07010KT 20/13 A3026 RMK A01 T01980132  RH  066%=      5-min Rain = 0
KEA1 141204Z 06009KT 20/13 A3026 RMK A01 T01990133  RH  066%=      5-min Rain = 0
KEA1 141205Z 07009KT 20/13 A3026 RMK A01 T01980132  RH  066%=      5-min Rain = 0
KEA1 141206Z 06010KT 20/13 A3026 RMK A01 T01980132  RH  066%=      5-min Rain = 0
KEA1 141207Z 06010KT 20/13 A3026 RMK A01 T01980132  RH  066%=      5-min Rain = 0
KEA1 141208Z 06009KT 20/13 A3027 RMK A01 T01970132  RH  066%=      5-min Rain = 0
KEA1 141209Z 06012KT 20/13 A3027 RMK A01 T01970132  RH  066%=      5-min Rain = 0
KEA1 141210Z 05015KT 20/13 A3027 RMK A01 T01970131  RH  066%=      5-min Rain = 0
KEA1 141211Z 05012KT 20/13 A3027 RMK A01 T01980131  RH  065%=      5-min Rain = 0
KEA1 141212Z 06013KT 20/13 A3027 RMK A01 T01980131  RH  065%=      5-min Rain = 0
KEA1 141213Z 05011KT 20/13 A3027 RMK A01 T01980131  RH  065%=      5-min Rain = 0
KEA1 141214Z 05012KT 20/13 A3027 RMK A01 T01980131  RH  065%=      5-min Rain = 0
KEA1 141215Z 05011KT 20/13 A3027 RMK A01 T01980131  RH  065%=      5-min Rain = 0
KEA1 141216Z 05011KT 20/13 A3027 RMK A01 T01980131  RH  065%=      5-min Rain = 0
KEA1 141217Z 06009KT 20/13 A3027 RMK A01 T01990131  RH  065%=      5-min Rain = 0
KEA1 141218Z 06010KT 20/13 A3027 RMK A01 T01990131  RH  065%=      5-min Rain = 0
KEA1 141219Z 06009KT 20/13 A3027 RMK A01 T01990131  RH  065%=      5-min Rain = 0
KEA1 141220Z 06011KT 20/13 A3027 RMK A01 T01990131  RH  065%=      5-min Rain = 0
KEA1 141221Z 06011KT 20/13 A3027 RMK A01 T01990131  RH  065%=      5-min Rain = 0
KEA1 141222Z 06010KT 20/13 A3027 RMK A01 T01990131  RH  065%=      5-min Rain = 0
KEA1 141223Z 06010KT 20/13 A3027 RMK A01 T02000131  RH  065%=      5-min Rain = 0
KEA1 141224Z 05009KT 20/13 A3027 RMK A01 T01990131  RH  065%=      5-min Rain = 0
KEA1 141225Z 05011KT 20/13 A3027 RMK A01 T01990131  RH  065%=      5-min Rain = 0
KEA1 141226Z 06009KT 20/13 A3027 RMK A01 T01990131  RH  065%=      5-min Rain = 0
KEA1 141227Z 05010KT 20/13 A3027 RMK A01 T01990131  RH  065%=      5-min Rain = 0
KEA1 141228Z 04011KT 20/13 A3027 RMK A01 T01990131  RH  065%=      5-min Rain = 0
KEA1 141229Z 04011KT 20/13 A3027 RMK A01 T02000131  RH  064%=      5-min Rain = 0
KEA1 141230Z 05012KT 20/13 A3027 RMK A01 T02000131  RH  064%=      5-min Rain = 0
KEA1 141231Z 04011KT 20/13 A3027 RMK A01 T02000131  RH  064%=      5-min Rain = 0
KEA1 141232Z 04013KT 20/13 A3028 RMK A01 T02000131  RH  065%=      5-min Rain = 0
KEA1 141233Z 05013KT 20/13 A3027 RMK A01 T02000131  RH  065%=      5-min Rain = 0
KEA1 141234Z 05011KT 20/13 A3027 RMK A01 T02000131  RH  065%=      5-min Rain = 0
KEA1 141235Z 04012KT 20/13 A3028 RMK A01 T02000131  RH  065%=      5-min Rain = 0
KEA1 141236Z 04014KT 20/13 A3028 RMK A01 T02000131  RH  065%=      5-min Rain = 0
KEA1 141237Z 04012KT 20/13 A3028 RMK A01 T02000131  RH  064%=      5-min Rain = 0
KEA1 141238Z 04009KT 20/13 A3028 RMK A01 T02000131  RH  065%=      5-min Rain = 0
KEA1 141239Z 03012KT 20/13 A3028 RMK A01 T02000131  RH  065%=      5-min Rain = 0
KEA1 141240Z 04014KT 20/13 A3028 RMK A01 T02000131  RH  065%=      5-min Rain = 0
KEA1 141241Z 05011KT 20/13 A3028 RMK A01 T02000131  RH  064%=      5-min Rain = 0
KEA1 141242Z 05011KT 20/13 A3028 RMK A01 T02010131  RH  064%=      5-min Rain = 0
KEA1 141243Z 04012KT 20/13 A3028 RMK A01 T02000131  RH  064%=      5-min Rain = 0
KEA1 141244Z 05012KT 20/13 A3028 RMK A01 T02000131  RH  064%=      5-min Rain = 0
KEA1 141245Z 05012KT 20/13 A3028 RMK A01 T02010131  RH  064%=      5-min Rain = 0
KEA1 141246Z 05012KT 20/13 A3028 RMK A01 T02010131  RH  064%=      5-min Rain = 0
KEA1 141247Z 05010KT 20/13 A3028 RMK A01 T02010131  RH  064%=      5-min Rain = 0
KEA1 141248Z 05010KT 20/13 A3029 RMK A01 T02000131  RH  064%=      5-min Rain = 0
KEA1 141249Z 06010KT 20/13 A3029 RMK A01 T02010131  RH  064%=      5-min Rain = 0
KEA1 141250Z 05009KT 20/13 A3029 RMK A01 T02010131  RH  064%=      5-min Rain = 0
KEA1 141251Z 04010KT 20/13 A3029 RMK A01 T02010131  RH  064%=      5-min Rain = 0
KEA1 141252Z 04009KT 20/13 A3029 RMK A01 T02020132  RH  064%=      5-min Rain = 0
KEA1 141253Z 06010KT 20/13 A3029 RMK A01 T02020132  RH  064%=      5-min Rain = 0
KEA1 141254Z 06009KT 20/13 A3029 RMK A01 T02010131  RH  064%=      5-min Rain = 0
KEA1 141255Z 05009KT 20/13 A3029 RMK A01 T02020132  RH  064%=      5-min Rain = 0
KEA1 141256Z 04009KT 20/13 A3029 RMK A01 T02020132  RH  064%=      5-min Rain = 0
KEA1 141257Z 03012KT 20/13 A303 RMK A01 T02020132  RH  064%=      5-min Rain = 0
KEA1 141258Z 03011KT 20/13 A303 RMK A01 T02020132  RH  064%=      5-min Rain = 0
KEA1 141259Z 04012KT 20/13 A303 RMK A01 T02020132  RH  064%=      5-min Rain = 0
KEA1 141300Z 03011KT 20/13 A303 RMK A01 T02020132  RH  064%=      5-min Rain = 0
KEA1 141301Z 03011KT 20/13 A303 RMK A01 T02020132  RH  064%=      5-min Rain = 0
KEA1 141302Z 03010KT 20/13 A303 RMK A01 T02020132  RH  064%=      5-min Rain = 0
KEA1 141303Z 04008KT 20/13 A303 RMK A01 T02020132  RH  064%=      5-min Rain = 0
KEA1 141304Z 03011KT 20/13 A303 RMK A01 T02030132  RH  064%=      5-min Rain = 0
KEA1 141305Z 03012KT 20/13 A303 RMK A01 T02020132  RH  064%=      5-min Rain = 0
KEA1 141306Z 04011KT 20/13 A303 RMK A01 T02030132  RH  064%=      5-min Rain = 0
KEA1 141307Z 04011KT 20/13 A303 RMK A01 T02030132  RH  064%=      5-min Rain = 0
KEA1 141308Z 03013KT 20/13 A3031 RMK A01 T02020131  RH  064%=      5-min Rain = 0
KEA1 141309Z 02011KT 20/13 A3031 RMK A01 T02030132  RH  064%=      5-min Rain = 0
KEA1 141310Z 03011KT 20/13 A3031 RMK A01 T02030132  RH  064%=      5-min Rain = 0
KEA1 141311Z 03013KT 20/13 A3031 RMK A01 T02030131  RH  064%=      5-min Rain = 0
KEA1 141312Z 03012KT 20/13 A3031 RMK A01 T02020131  RH  063%=      5-min Rain = 0
KEA1 141313Z 03011KT 20/13 A3031 RMK A01 T02030132  RH  064%=      5-min Rain = 0
KEA1 141314Z 04012KT 20/13 A3031 RMK A01 T02030131  RH  063%=      5-min Rain = 0
KEA1 141315Z 04011KT 20/13 A3031 RMK A01 T02030131  RH  063%=      5-min Rain = 0
KEA1 141316Z 03012KT 20/13 A3031 RMK A01 T02030131  RH  063%=      5-min Rain = 0
KEA1 141317Z 04009KT 20/13 A3031 RMK A01 T02030131  RH  064%=      5-min Rain = 0
KEA1 141318Z 03008KT 20/13 A3031 RMK A01 T02020131  RH  064%=      5-min Rain = 0
KEA1 141319Z 03008KT 20/13 A3032 RMK A01 T02030132  RH  064%=      5-min Rain = 0
KEA1 141320Z 02012KT 20/13 A3032 RMK A01 T02030132  RH  064%=      5-min Rain = 0
KEA1 141321Z 02010KT 20/13 A3032 RMK A01 T02030132  RH  064%=      5-min Rain = 0
KEA1 141322Z 02012KT 20/13 A3032 RMK A01 T02030132  RH  064%=      5-min Rain = 0
KEA1 141323Z 02010KT 20/13 A3033 RMK A01 T02030132  RH  064%=      5-min Rain = 0
KEA1 141324Z 01010KT 20/13 A3033 RMK A01 T02030132  RH  064%=      5-min Rain = 0
KEA1 141325Z 02012KT 20/13 A3033 RMK A01 T02030133  RH  064%=      5-min Rain = 0
KEA1 141326Z 02010KT 20/13 A3033 RMK A01 T02020132  RH  064%=      5-min Rain = 0
KEA1 141327Z 02013KT 20/13 A3033 RMK A01 T02020132  RH  064%=      5-min Rain = 0
KEA1 141328Z 02010KT 20/13 A3033 RMK A01 T02020132  RH  064%=      5-min Rain = 0
KEA1 141329Z 03009KT 20/13 A3033 RMK A01 T02020132  RH  064%=      5-min Rain = 0
KEA1 141330Z 02010KT 20/13 A3033 RMK A01 T02020132  RH  064%=      5-min Rain = 0
KEA1 141331Z 03011KT 20/13 A3033 RMK A01 T02020132  RH  064%=      5-min Rain = 0
KEA1 141332Z 02011KT 20/13 A3033 RMK A01 T02020131  RH  064%=      5-min Rain = 0
KEA1 141333Z 02012KT 20/13 A3033 RMK A01 T02020132  RH  064%=      5-min Rain = 0
KEA1 141334Z 02013KT 20/13 A3033 RMK A01 T02020132  RH  064%=      5-min Rain = 0
KEA1 141335Z 02012KT 20/13 A3033 RMK A01 T02020132  RH  064%=      5-min Rain = 0
KEA1 141336Z 02013KT 20/13 A3033 RMK A01 T02020132  RH  064%=      5-min Rain = 0
KEA1 141337Z 02014KT 20/13 A3033 RMK A01 T02020132  RH  064%=      5-min Rain = 0
KEA1 141338Z 02010KT 20/13 A3033 RMK A01 T02020133  RH  064%=      5-min Rain = 0
KEA1 141339Z 02009KT 20/13 A3033 RMK A01 T02020133  RH  064%=      5-min Rain = 0
KEA1 141340Z 02011KT 20/13 A3033 RMK A01 T02030133  RH  064%=      5-min Rain = 0
KEA1 141341Z 02011KT 20/13 A3033 RMK A01 T02040134  RH  064%=      5-min Rain = 0
KEA1 141342Z 03013KT 20/13 A3033 RMK A01 T02040134  RH  064%=      5-min Rain = 0
KEA1 141343Z 02013KT 21/13 A3032 RMK A01 T02050133  RH  064%=      5-min Rain = 0
KEA1 141344Z 02013KT 20/13 A3032 RMK A01 T02040133  RH  064%=      5-min Rain = 0
KEA1 141345Z 03012KT 21/14 A3032 RMK A01 T02060135  RH  064%=      5-min Rain = 0
KEA1 141346Z 03012KT 21/14 A3032 RMK A01 T02070135  RH  063%=      5-min Rain = 0
KEA1 141347Z 02012KT 21/14 A3032 RMK A01 T02080135  RH  063%=      5-min Rain = 0
KEA1 141348Z 02012KT 21/14 A3032 RMK A01 T02090136  RH  063%=      5-min Rain = 0
KEA1 141349Z 02015KT 21/14 A3032 RMK A01 T02100136  RH  063%=      5-min Rain = 0
KEA1 141350Z 02013KT 21/14 A3032 RMK A01 T02100135  RH  062%=      5-min Rain = 0
KEA1 141351Z 02011KT 21/14 A3032 RMK A01 T02100135  RH  062%=      5-min Rain = 0
KEA1 141352Z 02015KT 21/14 A3032 RMK A01 T02120137  RH  062%=      5-min Rain = 0
KEA1 141353Z 01013KT 21/14 A3032 RMK A01 T02140137  RH  062%=      5-min Rain = 0
KEA1 141354Z 01016KT 22/14 A3032 RMK A01 T02160137  RH  061%=      5-min Rain = 0
KEA1 141355Z 02013KT 22/14 A3032 RMK A01 T02160137  RH  060%=      5-min Rain = 0
KEA1 141356Z 01012KT 22/14 A3032 RMK A01 T02160137  RH  061%=      5-min Rain = 0
KEA1 141357Z 02011KT 22/14 A3032 RMK A01 T02160137  RH  061%=      5-min Rain = 0
KEA1 141358Z 02014KT 22/14 A3032 RMK A01 T02160137  RH  061%=      5-min Rain = 0
KEA1 141359Z 02011KT 22/14 A3032 RMK A01 T02160137  RH  061%=      5-min Rain = 0
KEA1 141400Z 02012KT 22/14 A3032 RMK A01 T02170138  RH  061%=      5-min Rain = 0
KEA1 141401Z 02014KT 22/14 A3032 RMK A01 T02170137  RH  060%=      5-min Rain = 0
KEA1 141402Z 03014KT 22/14 A3032 RMK A01 T02180138  RH  060%=      5-min Rain = 0
KEA1 141403Z 03015KT 22/14 A3032 RMK A01 T02190138  RH  060%=      5-min Rain = 0
KEA1 141404Z 03012KT 22/14 A3032 RMK A01 T02200138  RH  060%=      5-min Rain = 0
KEA1 141405Z 03014KT 22/14 A3032 RMK A01 T02220139  RH  060%=      5-min Rain = 0
KEA1 141406Z 03014KT 22/14 A3032 RMK A01 T02230139  RH  059%=      5-min Rain = 0
KEA1 141407Z 03015KT 22/14 A3032 RMK A01 T02230139  RH  059%=      5-min Rain = 0
KEA1 141408Z 03014KT 22/14 A3032 RMK A01 T02220138  RH  059%=      5-min Rain = 0
KEA1 141409Z 03014KT 22/14 A3032 RMK A01 T02220138  RH  059%=      5-min Rain = 0
KEA1 141410Z 03013KT 22/14 A3032 RMK A01 T02220137  RH  058%=      5-min Rain = 0
KEA1 141411Z 03011KT 22/14 A3032 RMK A01 T02220135  RH  058%=      5-min Rain = 0
KEA1 141412Z 02013KT 22/13 A3032 RMK A01 T02220132  RH  057%=      5-min Rain = 0
KEA1 141413Z 02013KT 22/13 A3032 RMK A01 T02230130  RH  055%=      5-min Rain = 0
KEA1 141414Z 02012KT 22/13 A3032 RMK A01 T02240132  RH  056%=      5-min Rain = 0
KEA1 141415Z 03014KT 22/13 A3032 RMK A01 T02240132  RH  056%=      5-min Rain = 0
KEA1 141416Z 03013KT 22/13 A3032 RMK A01 T02230128  RH  055%=      5-min Rain = 0
KEA1 141417Z 03012KT 22/13 A3032 RMK A01 T02230128  RH  055%=      5-min Rain = 0
KEA1 141418Z 03011KT 22/13 A3032 RMK A01 T02230128  RH  055%=      5-min Rain = 0
KEA1 141419Z 03010KT 22/13 A3032 RMK A01 T02230129  RH  055%=      5-min Rain = 0
KEA1 141420Z 03012KT 22/13 A3032 RMK A01 T02220127  RH  055%=      5-min Rain = 0
KEA1 141421Z 03009KT 22/13 A3032 RMK A01 T02220126  RH  055%=      5-min Rain = 0
KEA1 141422Z 02008KT 22/13 A3032 RMK A01 T02210127  RH  055%=      5-min Rain = 0
KEA1 141423Z 02010KT 22/13 A3032 RMK A01 T02210125  RH  054%=      5-min Rain = 0
KEA1 141424Z 02010KT 22/13 A3032 RMK A01 T02210125  RH  054%=      5-min Rain = 0
KEA1 141425Z 03009KT 22/13 A3032 RMK A01 T02200125  RH  055%=      5-min Rain = 0
KEA1 141426Z 03009KT 22/13 A3032 RMK A01 T02200126  RH  055%=      5-min Rain = 0
KEA1 141427Z 02010KT 22/13 A3032 RMK A01 T02200125  RH  055%=      5-min Rain = 0
KEA1 141428Z 03010KT 22/13 A3032 RMK A01 T02200125  RH  055%=      5-min Rain = 0
KEA1 141429Z 02009KT 22/13 A3032 RMK A01 T02190125  RH  055%=      5-min Rain = 0
KEA1 141430Z 03009KT 22/13 A3032 RMK A01 T02190125  RH  055%=      5-min Rain = 0
KEA1 141431Z 02008KT 22/13 A3032 RMK A01 T02190126  RH  055%=      5-min Rain = 0
KEA1 141432Z 02006KT 22/13 A3032 RMK A01 T02190126  RH  055%=      5-min Rain = 0
KEA1 141433Z 02006KT 22/13 A3032 RMK A01 T02190126  RH  056%=      5-min Rain = 0
KEA1 141434Z 02006KT 22/13 A3032 RMK A01 T02190126  RH  056%=      5-min Rain = 0
KEA1 141435Z 02008KT 22/13 A3032 RMK A01 T02180125  RH  055%=      5-min Rain = 0
KEA1 141436Z 01007KT 22/13 A3032 RMK A01 T02190125  RH  055%=      5-min Rain = 0
KEA1 141437Z 01007KT 22/13 A3032 RMK A01 T02180125  RH  055%=      5-min Rain = 0
KEA1 141438Z 01006KT 22/13 A3032 RMK A01 T02190125  RH  055%=      5-min Rain = 0
KEA1 141439Z 36005KT 22/13 A3032 RMK A01 T02180125  RH  055%=      5-min Rain = 0
KEA1 141440Z 01007KT 22/13 A3032 RMK A01 T02190125  RH  055%=      5-min Rain = 0
KEA1 141441Z 01006KT 22/13 A3032 RMK A01 T02180125  RH  055%=      5-min Rain = 0
KEA1 141442Z 01005KT 22/13 A3032 RMK A01 T02180125  RH  055%=      5-min Rain = 0
KEA1 141443Z 00006KT 22/13 A3032 RMK A01 T02180125  RH  055%=      5-min Rain = 0
KEA1 141444Z 01007KT 22/12 A3032 RMK A01 T02180124  RH  055%=      5-min Rain = 0
KEA1 141445Z 01005KT 22/12 A3032 RMK A01 T02180124  RH  055%=      5-min Rain = 0
KEA1 141446Z 02004KT 22/12 A3032 RMK A01 T02180124  RH  055%=      5-min Rain = 0
KEA1 141447Z 02004KT 22/13 A3032 RMK A01 T02180125  RH  055%=      5-min Rain = 0
KEA1 141448Z 02003KT 22/12 A3032 RMK A01 T02180124  RH  055%=      5-min Rain = 0
KEA1 141449Z 02004KT 22/13 A3032 RMK A01 T02180125  RH  055%=      5-min Rain = 0
KEA1 141450Z 03003KT 22/12 A3032 RMK A01 T02180124  RH  055%=      5-min Rain = 0
KEA1 141451Z 02004KT 22/12 A3032 RMK A01 T02180123  RH  055%=      5-min Rain = 0
KEA1 141452Z 02003KT 22/12 A3032 RMK A01 T02180123  RH  055%=      5-min Rain = 0
KEA1 141453Z 03004KT 22/12 A3031 RMK A01 T02180123  RH  055%=      5-min Rain = 0
KEA1 141454Z 06003KT 22/12 A3031 RMK A01 T02180124  RH  055%=      5-min Rain = 0
KEA1 141455Z 07005KT 22/13 A3031 RMK A01 T02170125  RH  055%=      5-min Rain = 0
KEA1 141456Z 07005KT 22/12 A303 RMK A01 T02170123  RH  055%=      5-min Rain = 0
KEA1 141457Z 09004KT 22/13 A303 RMK A01 T02170125  RH  056%=      5-min Rain = 0
KEA1 141458Z 09005KT 22/13 A303 RMK A01 T02170125  RH  056%=      5-min Rain = 0
KEA1 141459Z 09006KT 22/12 A3029 RMK A01 T02170124  RH  055%=      5-min Rain = 0
KEA1 141500Z 09006KT 22/12 A3029 RMK A01 T02180123  RH  055%=      5-min Rain = 0
KEA1 141501Z 10008KT 22/12 A3028 RMK A01 T02180123  RH  055%=      5-min Rain = 0
KEA1 141502Z 10009KT 22/12 A3028 RMK A01 T02180122  RH  054%=      5-min Rain = 0
KEA1 141503Z 10010KT 22/12 A3027 RMK A01 T02180122  RH  054%=      5-min Rain = 0
KEA1 141504Z 10009KT 22/12 A3027 RMK A01 T02190122  RH  054%=      5-min Rain = 0
KEA1 141505Z 10011KT 22/12 A3026 RMK A01 T02190122  RH  054%=      5-min Rain = 0
KEA1 141506Z 10008KT 22/12 A3026 RMK A01 T02200122  RH  054%=      5-min Rain = 0
KEA1 141507Z 10009KT 22/12 A3026 RMK A01 T02200122  RH  054%=      5-min Rain = 0
KEA1 141508Z 10010KT 22/12 A3026 RMK A01 T02200122  RH  054%=      5-min Rain = 0
KEA1 141509Z 09009KT 22/12 A3026 RMK A01 T02210122  RH  054%=      5-min Rain = 0
KEA1 141510Z 10011KT 22/12 A3026 RMK A01 T02220123  RH  053%=      5-min Rain = 0
KEA1 141511Z 09010KT 22/12 A3025 RMK A01 T02230122  RH  053%=      5-min Rain = 0
KEA1 141512Z 09010KT 22/12 A3025 RMK A01 T02240122  RH  053%=      5-min Rain = 0
KEA1 141513Z 09010KT 22/12 A3025 RMK A01 T02240122  RH  052%=      5-min Rain = 0
KEA1 141514Z 08010KT 22/12 A3025 RMK A01 T02240122  RH  052%=      5-min Rain = 0
KEA1 141515Z 09010KT 23/12 A3025 RMK A01 T02250123  RH  052%=      5-min Rain = 0
KEA1 141516Z 10010KT 23/12 A3025 RMK A01 T02250122  RH  052%=      5-min Rain = 0
KEA1 141517Z 10009KT 23/12 A3025 RMK A01 T02270122  RH  052%=      5-min Rain = 0
KEA1 141518Z 10010KT 23/12 A3025 RMK A01 T02280122  RH  051%=      5-min Rain = 0
KEA1 141519Z 10010KT 23/12 A3025 RMK A01 T02280121  RH  051%=      5-min Rain = 0
KEA1 141520Z 11010KT 23/12 A3024 RMK A01 T02280122  RH  051%=      5-min Rain = 0
KEA1 141521Z 10010KT 23/12 A3024 RMK A01 T02290122  RH  051%=      5-min Rain = 0
KEA1 141522Z 11013KT 23/12 A3024 RMK A01 T02300121  RH  050%=      5-min Rain = 0
KEA1 141523Z 11012KT 23/12 A3024 RMK A01 T02310121  RH  050%=      5-min Rain = 0
KEA1 141524Z 11012KT 23/12 A3024 RMK A01 T02310122  RH  050%=      5-min Rain = 0
KEA1 141525Z 11012KT 23/12 A3024 RMK A01 T02310120  RH  050%=      5-min Rain = 0
KEA1 141526Z 11010G16KT 23/12 A3024 RMK A01 T02320122  RH  050%=      5-min Rain = 0
KEA1 141527Z 12013KT 23/12 A3024 RMK A01 T02330121  RH  049%=      5-min Rain = 0
KEA1 141528Z 12012KT 23/12 A3024 RMK A01 T02330121  RH  049%=      5-min Rain = 0
KEA1 141529Z 13011KT 23/12 A3024 RMK A01 T02330122  RH  049%=      5-min Rain = 0
KEA1 141530Z 12015KT 24/12 A3024 RMK A01 T02350122  RH  049%=      5-min Rain = 0
KEA1 141531Z 13013G18KT 24/12 A3024 RMK A01 T02350121  RH  049%=      5-min Rain = 0
KEA1 141532Z 13015KT 24/12 A3024 RMK A01 T02360122  RH  049%=      5-min Rain = 0
KEA1 141533Z 13014KT 24/12 A3024 RMK A01 T02360123  RH  049%=      5-min Rain = 0
KEA1 141534Z 13012KT 24/12 A3024 RMK A01 T02370124  RH  049%=      5-min Rain = 0
KEA1 141535Z 13012KT 24/13 A3024 RMK A01 T02390126  RH  049%=      5-min Rain = 0
KEA1 141536Z 14013KT 24/13 A3024 RMK A01 T02400126  RH  049%=      5-min Rain = 0
KEA1 141537Z 13014KT 24/13 A3024 RMK A01 T02400126  RH  049%=      5-min Rain = 0
KEA1 141538Z 12013KT 24/13 A3025 RMK A01 T02400125  RH  048%=      5-min Rain = 0
KEA1 141539Z 12012KT 24/12 A3025 RMK A01 T02390124  RH  048%=      5-min Rain = 0
KEA1 141540Z 13011KT 24/12 A3025 RMK A01 T02400124  RH  048%=      5-min Rain = 0
KEA1 141541Z 13011KT 24/13 A3024 RMK A01 T02400126  RH  049%=      5-min Rain = 0
KEA1 141542Z 13013KT 24/13 A3024 RMK A01 T02420126  RH  049%=      5-min Rain = 0
KEA1 141543Z 12014KT 24/13 A3024 RMK A01 T02420125  RH  048%=      5-min Rain = 0
KEA1 141544Z 13012KT 24/12 A3024 RMK A01 T02420124  RH  048%=      5-min Rain = 0
KEA1 141545Z 12010KT 24/12 A3024 RMK A01 T02410124  RH  048%=      5-min Rain = 0
KEA1 141546Z 13011KT 24/13 A3025 RMK A01 T02420125  RH  048%=      5-min Rain = 0
KEA1 141547Z 13011KT 24/13 A3025 RMK A01 T02420126  RH  048%=      5-min Rain = 0
KEA1 141548Z 13011KT 24/13 A3025 RMK A01 T02430125  RH  048%=      5-min Rain = 0
KEA1 141549Z 12013KT 24/12 A3025 RMK A01 T02430122  RH  047%=      5-min Rain = 0
KEA1 141550Z 12010KT 24/12 A3025 RMK A01 T02430122  RH  047%=      5-min Rain = 0
KEA1 141551Z 12010KT 24/12 A3025 RMK A01 T02440123  RH  047%=      5-min Rain = 0
KEA1 141552Z 13008KT 25/12 A3025 RMK A01 T02460123  RH  046%=      5-min Rain = 0
KEA1 141553Z 13009KT 25/13 A3025 RMK A01 T02470126  RH  047%=      5-min Rain = 0
KEA1 141554Z 12010KT 25/13 A3025 RMK A01 T02480127  RH  047%=      5-min Rain = 0
KEA1 141555Z 13011KT 25/13 A3025 RMK A01 T02480128  RH  047%=      5-min Rain = 0
KEA1 141556Z 12009KT 25/13 A3025 RMK A01 T02490125  RH  046%=      5-min Rain = 0
KEA1 141557Z 12010KT 25/13 A3025 RMK A01 T02500125  RH  046%=      5-min Rain = 0
KEA1 141558Z 12010KT 25/13 A3025 RMK A01 T02500125  RH  046%=      5-min Rain = 0
KEA1 141559Z 11008KT 25/13 A3025 RMK A01 T02500125  RH  046%=      5-min Rain = 0
KEA1 141600Z 10008KT 25/12 A3025 RMK A01 T02520124  RH  045%=      5-min Rain = 0
KEA1 141601Z 10009KT 25/13 A3025 RMK A01 T02520125  RH  045%=      5-min Rain = 0
KEA1 141602Z 11010KT 25/13 A3025 RMK A01 T02520125  RH  045%=      5-min Rain = 0
KEA1 141603Z 11007KT 25/13 A3025 RMK A01 T02520125  RH  045%=      5-min Rain = 0
KEA1 141604Z 12009KT 25/13 A3025 RMK A01 T02540128  RH  045%=      5-min Rain = 0
KEA1 141605Z 11009KT 26/13 A3025 RMK A01 T02560125  RH  044%=      5-min Rain = 0
KEA1 141606Z 12010KT 26/13 A3025 RMK A01 T02570126  RH  044%=      5-min Rain = 0
KEA1 141607Z 11007KT 26/13 A3025 RMK A01 T02610132  RH  045%=      5-min Rain = 0
KEA1 141608Z 11008KT 27/13 A3025 RMK A01 T02670132  RH  043%=      5-min Rain = 0
KEA1 141609Z 10010KT 27/13 A3025 RMK A01 T02720130  RH  041%=      5-min Rain = 0
KEA1 141610Z 11007G12KT 27/13 A3025 RMK A01 T02720128  RH  041%=      5-min Rain = 0
KEA1 141611Z 11008KT 27/13 A3025 RMK A01 T02740130  RH  041%=      5-min Rain = 0
KEA1 141612Z 12011KT 28/13 A3025 RMK A01 T02780127  RH  039%=      5-min Rain = 0
KEA1 141613Z 13011KT 27/13 A3025 RMK A01 T02740127  RH  040%=      5-min Rain = 0
KEA1 141614Z 12011KT 27/13 A3025 RMK A01 T02700125  RH  041%=      5-min Rain = 0
KEA1 141615Z 11009KT 27/13 A3025 RMK A01 T02680126  RH  041%=      5-min Rain = 0
KEA1 141616Z 12011KT 27/13 A3024 RMK A01 T02680128  RH  042%=      5-min Rain = 0
KEA1 141617Z 12007KT 27/13 A3025 RMK A01 T02680130  RH  043%=      5-min Rain = 0
KEA1 141618Z 13013KT 27/13 A3024 RMK A01 T02700129  RH  042%=      5-min Rain = 0
KEA1 141619Z 11010KT 27/13 A3025 RMK A01 T02700126  RH  041%=      5-min Rain = 0
KEA1 141620Z 13008KT 27/13 A3025 RMK A01 T02680127  RH  042%=      5-min Rain = 0
KEA1 141621Z 13008KT 27/13 A3025 RMK A01 T02680129  RH  042%=      5-min Rain = 0
KEA1 141622Z 11009KT 27/13 A3025 RMK A01 T02680132  RH  043%=      5-min Rain = 0
KEA1 141623Z 11009KT 27/13 A3025 RMK A01 T02720130  RH  041%=      5-min Rain = 0
KEA1 141624Z 10007KT 28/13 A3025 RMK A01 T02770134  RH  041%=      5-min Rain = 0
KEA1 141625Z 09008KT 28/13 A3025 RMK A01 T02840130  RH  039%=      5-min Rain = 0
KEA1 141626Z 09007KT 28/13 A3025 RMK A01 T02830131  RH  039%=      5-min Rain = 0
KEA1 141627Z 10007KT 28/13 A3025 RMK A01 T02810132  RH  040%=      5-min Rain = 0
KEA1 141628Z 08008KT 28/14 A3025 RMK A01 T02820136  RH  041%=      5-min Rain = 0
KEA1 141629Z 08006KT 29/14 A3025 RMK A01 T02860135  RH  040%=      5-min Rain = 0
KEA1 141630Z 09006KT 29/13 A3025 RMK A01 T02870133  RH  039%=      5-min Rain = 0
KEA1 141631Z 08008KT 29/13 A3025 RMK A01 T02890131  RH  038%=      5-min Rain = 0
KEA1 141632Z 08006KT 29/13 A3025 RMK A01 T02900131  RH  038%=      5-min Rain = 0
KEA1 141633Z 07006KT 29/13 A3025 RMK A01 T02880131  RH  038%=      5-min Rain = 0
KEA1 141634Z 08006KT 29/13 A3026 RMK A01 T02870131  RH  038%=      5-min Rain = 0
KEA1 141635Z 07010KT 29/13 A3026 RMK A01 T02870130  RH  038%=      5-min Rain = 0
KEA1 141636Z 07009KT 29/13 A3026 RMK A01 T02860128  RH  038%=      5-min Rain = 0
KEA1 141637Z 07007KT 28/13 A3026 RMK A01 T02820130  RH  039%=      5-min Rain = 0
KEA1 141638Z 07010KT 28/13 A3025 RMK A01 T02800130  RH  040%=      5-min Rain = 0
KEA1 141639Z 07012KT 28/13 A3026 RMK A01 T02810126  RH  038%=      5-min Rain = 0
KEA1 141640Z 06008KT 28/13 A3026 RMK A01 T02810128  RH  039%=      5-min Rain = 0
KEA1 141641Z 05008KT 28/13 A3026 RMK A01 T02840128  RH  038%=      5-min Rain = 0
KEA1 141642Z 09005KT 29/13 A3026 RMK A01 T02850129  RH  038%=      5-min Rain = 0
KEA1 141643Z 10007KT 29/13 A3026 RMK A01 T02880127  RH  037%=      5-min Rain = 0
KEA1 141644Z 08008KT 29/13 A3026 RMK A01 T02880126  RH  037%=      5-min Rain = 0
KEA1 141645Z 07008KT 29/13 A3026 RMK A01 T02880126  RH  037%=      5-min Rain = 0
KEA1 141646Z 05011KT 29/13 A3026 RMK A01 T02870127  RH  037%=      5-min Rain = 0
KEA1 141647Z 04010KT 29/12 A3026 RMK A01 T02880124  RH  036%=      5-min Rain = 0
KEA1 141648Z 06009KT 29/13 A3026 RMK A01 T02870125  RH  037%=      5-min Rain = 0
KEA1 141649Z 07007KT 29/13 A3026 RMK A01 T02860126  RH  037%=      5-min Rain = 0
KEA1 141650Z 07007KT 29/13 A3026 RMK A01 T02880126  RH  037%=      5-min Rain = 0
KEA1 141651Z 06011KT 29/13 A3026 RMK A01 T02890126  RH  037%=      5-min Rain = 0
KEA1 141652Z 04008KT 29/12 A3026 RMK A01 T02920123  RH  035%=      5-min Rain = 0
KEA1 141653Z 05006KT 29/12 A3026 RMK A01 T02900123  RH  036%=      5-min Rain = 0
KEA1 141654Z 05013KT 29/12 A3026 RMK A01 T02900122  RH  035%=      5-min Rain = 0
KEA1 141655Z 06007G12KT 29/12 A3026 RMK A01 T02940116  RH  033%=      5-min Rain = 0
KEA1 141656Z 08005KT 29/12 A3026 RMK A01 T02920118  RH  034%=      5-min Rain = 0
KEA1 141657Z 07007KT 29/12 A3026 RMK A01 T02920120  RH  035%=      5-min Rain = 0
KEA1 141658Z 08005KT 29/12 A3026 RMK A01 T02920119  RH  034%=      5-min Rain = 0
KEA1 141659Z 07007KT 30/12 A3026 RMK A01 T02960115  RH  033%=      5-min Rain = 0
KEA1 141700Z 06008KT 30/12 A3026 RMK A01 T02980115  RH  032%=      5-min Rain = 0
KEA1 141701Z 06009KT 30/11 A3026 RMK A01 T02960114  RH  033%=      5-min Rain = 0
KEA1 141702Z 06011KT 29/11 A3026 RMK A01 T02940113  RH  033%=      5-min Rain = 0
KEA1 141703Z 06010KT 30/11 A3026 RMK A01 T02950108  RH  031%=      5-min Rain = 0
KEA1 141704Z 06011KT 30/11 A3026 RMK A01 T02960108  RH  031%=      5-min Rain = 0
KEA1 141705Z 05010KT 30/11 A3026 RMK A01 T02980106  RH  031%=      5-min Rain = 0
KEA1 141706Z 05010KT 30/11 A3026 RMK A01 T02980106  RH  030%=      5-min Rain = 0
KEA1 141707Z 06009KT 30/10 A3026 RMK A01 T02980104  RH  030%=      5-min Rain = 0
KEA1 141708Z 05012KT 30/10 A3026 RMK A01 T02990104  RH  030%=      5-min Rain = 0
KEA1 141709Z 06012KT 30/11 A3026 RMK A01 T03010105  RH  030%=      5-min Rain = 0
KEA1 141710Z 05010KT 30/11 A3026 RMK A01 T03000110  RH  031%=      5-min Rain = 0
KEA1 141711Z 04012KT 30/11 A3026 RMK A01 T02990108  RH  031%=      5-min Rain = 0
KEA1 141712Z 05011KT 30/11 A3026 RMK A01 T02980108  RH  031%=      5-min Rain = 0
KEA1 141713Z 04011KT 30/11 A3026 RMK A01 T02990110  RH  031%=      5-min Rain = 0
KEA1 141714Z 04011KT 30/11 A3026 RMK A01 T02980112  RH  032%=      5-min Rain = 0
KEA1 141715Z 05012KT 30/11 A3026 RMK A01 T03000113  RH  032%=      5-min Rain = 0
KEA1 141716Z 04012G17KT 30/11 A3026 RMK A01 T03000113  RH  031%=      5-min Rain = 0
KEA1 141717Z 02014KT 30/12 A3025 RMK A01 T03000115  RH  032%=      5-min Rain = 0
KEA1 141718Z 02013KT 30/11 A3025 RMK A01 T02990114  RH  032%=      5-min Rain = 0
KEA1 141719Z 03012KT 30/12 A3026 RMK A01 T03000115  RH  032%=      5-min Rain = 0
KEA1 141720Z 02012KT 30/12 A3026 RMK A01 T03010116  RH  032%=      5-min Rain = 0
KEA1 141721Z 01015KT 30/12 A3025 RMK A01 T03010116  RH  032%=      5-min Rain = 0
KEA1 141722Z 01012KT 30/12 A3026 RMK A01 T03010116  RH  032%=      5-min Rain = 0
KEA1 141723Z 02012KT 30/12 A3026 RMK A01 T03000116  RH  032%=      5-min Rain = 0
KEA1 141724Z 03012KT 30/12 A3026 RMK A01 T03010116  RH  032%=      5-min Rain = 0
KEA1 141725Z 02010KT 30/11 A3026 RMK A01 T02990114  RH  032%=      5-min Rain = 0
KEA1 141726Z 02009KT 30/11 A3026 RMK A01 T02950112  RH  032%=      5-min Rain = 0
KEA1 141727Z 03013KT 30/11 A3026 RMK A01 T02990114  RH  032%=      5-min Rain = 0
KEA1 141728Z 04011KT 30/11 A3026 RMK A01 T03020114  RH  031%=      5-min Rain = 0
KEA1 141729Z 03009G14KT 30/12 A3026 RMK A01 T03000115  RH  032%=      5-min Rain = 0
KEA1 141730Z 03014KT 30/12 A3026 RMK A01 T02980115  RH  032%=      5-min Rain = 0
KEA1 141731Z 02013KT 30/11 A3026 RMK A01 T02980114  RH  032%=      5-min Rain = 0
KEA1 141732Z 04014KT 30/11 A3026 RMK A01 T03000109  RH  031%=      5-min Rain = 0
KEA1 141733Z 04013KT 30/11 A3026 RMK A01 T03000111  RH  031%=      5-min Rain = 0
KEA1 141734Z 03011KT 31/12 A3026 RMK A01 T03050115  RH  031%=      5-min Rain = 0
KEA1 141735Z 04014KT 31/12 A3026 RMK A01 T03100116  RH  030%=      5-min Rain = 0
KEA1 141736Z 03015KT 31/11 A3026 RMK A01 T03110114  RH  030%=      5-min Rain = 0
KEA1 141737Z 03015KT 31/11 A3026 RMK A01 T03070113  RH  030%=      5-min Rain = 0
KEA1 141738Z 03015KT 30/11 A3026 RMK A01 T03020112  RH  031%=      5-min Rain = 0
KEA1 141739Z 04011KT 30/12 A3026 RMK A01 T02990115  RH  032%=      5-min Rain = 0
KEA1 141740Z 04011KT 30/12 A3026 RMK A01 T03000116  RH  032%=      5-min Rain = 0
KEA1 141741Z 04011KT 30/12 A3026 RMK A01 T03020117  RH  032%=      5-min Rain = 0
KEA1 141742Z 01013KT 30/11 A3026 RMK A01 T03030114  RH  031%=      5-min Rain = 0
KEA1 141743Z 01012KT 30/11 A3025 RMK A01 T03020112  RH  031%=      5-min Rain = 0
KEA1 141744Z 01011KT 30/11 A3026 RMK A01 T03020113  RH  031%=      5-min Rain = 0
KEA1 141745Z 02011KT 30/11 A3025 RMK A01 T03040113  RH  031%=      5-min Rain = 0
KEA1 141746Z 03010KT 30/11 A3025 RMK A01 T03040112  RH  031%=      5-min Rain = 0
KEA1 141747Z 02014KT 31/11 A3025 RMK A01 T03050109  RH  030%=      5-min Rain = 0
KEA1 141748Z 03013KT 31/11 A3025 RMK A01 T03060107  RH  029%=      5-min Rain = 0
KEA1 141749Z 03009KT 31/11 A3025 RMK A01 T03080113  RH  030%=      5-min Rain = 0
KEA1 141750Z 03010KT 31/11 A3025 RMK A01 T03100113  RH  030%=      5-min Rain = 0
KEA1 141751Z 03012KT 31/11 A3025 RMK A01 T03070113  RH  030%=      5-min Rain = 0
KEA1 141752Z 03010G15KT 31/12 A3025 RMK A01 T03050115  RH  031%=      5-min Rain = 0
KEA1 141753Z 01011KT 31/12 A3025 RMK A01 T03050115  RH  031%=      5-min Rain = 0
KEA1 141754Z 03012KT 31/12 A3025 RMK A01 T03060116  RH  031%=      5-min Rain = 0
KEA1 141755Z 00014KT 31/12 A3025 RMK A01 T03080116  RH  031%=      5-min Rain = 0
KEA1 141756Z 35012KT 31/12 A3025 RMK A01 T03110118  RH  031%=      5-min Rain = 0
KEA1 141757Z 01011KT 31/12 A3025 RMK A01 T03130119  RH  030%=      5-min Rain = 0
KEA1 141758Z 36014KT 31/12 A3025 RMK A01 T03130121  RH  031%=      5-min Rain = 0
KEA1 141759Z 35011KT 31/12 A3025 RMK A01 T03110118  RH  031%=      5-min Rain = 0
KEA1 141800Z 35012G17KT 31/12 A3025 RMK A01 T03070118  RH  031%=      5-min Rain = 0
KEA1 141801Z 36012KT 31/12 A3025 RMK A01 T03090116  RH  030%=      5-min Rain = 0
KEA1 141802Z 36011KT 31/12 A3025 RMK A01 T03090115  RH  030%=      5-min Rain = 0
KEA1 141803Z 01010G18KT 31/12 A3025 RMK A01 T03100115  RH  030%=      5-min Rain = 0
KEA1 141804Z 01017KT 31/11 A3025 RMK A01 T03120114  RH  030%=      5-min Rain = 0
KEA1 141805Z 01014KT 31/11 A3025 RMK A01 T03100114  RH  030%=      5-min Rain = 0
KEA1 141806Z 01016KT 31/11 A3025 RMK A01 T03090111  RH  030%=      5-min Rain = 0
KEA1 141807Z 36010KT 31/11 A3025 RMK A01 T03070111  RH  030%=      5-min Rain = 0
KEA1 141808Z 01010G16KT 31/12 A3025 RMK A01 T03080115  RH  031%=      5-min Rain = 0
KEA1 141809Z 02015KT 31/10 A3025 RMK A01 T03120103  RH  028%=      5-min Rain = 0
KEA1 141810Z 01011KT 31/10 A3025 RMK A01 T03120102  RH  027%=      5-min Rain = 0
KEA1 141811Z 01015KT 31/11 A3025 RMK A01 T03120108  RH  028%=      5-min Rain = 0
KEA1 141812Z 00013KT 31/11 A3025 RMK A01 T03130107  RH  028%=      5-min Rain = 0
KEA1 141813Z 02012KT 31/11 A3025 RMK A01 T03130107  RH  028%=      5-min Rain = 0
KEA1 141814Z 01013KT 32/11 A3025 RMK A01 T03160109  RH  028%=      5-min Rain = 0
KEA1 141815Z 02015G22KT 32/11 A3025 RMK A01 T03170105  RH  027%=      5-min Rain = 0
KEA1 141816Z 02016G21KT 32/10 A3025 RMK A01 T03150101  RH  027%=      5-min Rain = 0
KEA1 141817Z 02014G19KT 31/10 A3025 RMK A01 T03140103  RH  027%=      5-min Rain = 0
KEA1 141818Z 04016KT 32/11 A3025 RMK A01 T03150106  RH  028%=      5-min Rain = 0
KEA1 141819Z 05016G21KT 32/11 A3025 RMK A01 T03150107  RH  028%=      5-min Rain = 0
KEA1 141820Z 04011KT 31/11 A3025 RMK A01 T03090106  RH  029%=      5-min Rain = 0
KEA1 141821Z 02010KT 31/11 A3025 RMK A01 T03090111  RH  030%=      5-min Rain = 0
KEA1 141822Z 02017KT 32/11 A3025 RMK A01 T03160112  RH  029%=      5-min Rain = 0
KEA1 141823Z 02015KT 32/11 A3025 RMK A01 T03170110  RH  028%=      5-min Rain = 0
KEA1 141824Z 03010KT 31/11 A3025 RMK A01 T03130111  RH  029%=      5-min Rain = 0
KEA1 141825Z 04010KT 31/11 A3025 RMK A01 T03120112  RH  029%=      5-min Rain = 0
KEA1 141826Z 04008KT 31/11 A3025 RMK A01 T03130114  RH  029%=      5-min Rain = 0
KEA1 141827Z 03010KT 31/11 A3025 RMK A01 T03140114  RH  029%=      5-min Rain = 0
KEA1 141828Z 03012KT 32/11 A3025 RMK A01 T03150113  RH  029%=      5-min Rain = 0
KEA1 141829Z 03009KT 31/11 A3025 RMK A01 T03120111  RH  029%=      5-min Rain = 0
KEA1 141830Z 03010G17KT 31/11 A3025 RMK A01 T03090112  RH  030%=      5-min Rain = 0
KEA1 141831Z 02015KT 31/12 A3025 RMK A01 T03130116  RH  030%=      5-min Rain = 0
KEA1 141832Z 03013KT 32/12 A3025 RMK A01 T03170116  RH  029%=      5-min Rain = 0
KEA1 141833Z 03009KT 32/12 A3025 RMK A01 T03180117  RH  029%=      5-min Rain = 0
KEA1 141834Z 03011KT 32/12 A3025 RMK A01 T03190117  RH  029%=      5-min Rain = 0
KEA1 141835Z 05011KT 32/12 A3025 RMK A01 T03200118  RH  029%=      5-min Rain = 0
KEA1 141836Z 05008KT 32/12 A3025 RMK A01 T03200117  RH  029%=      5-min Rain = 0
KEA1 141837Z 02013KT 32/12 A3025 RMK A01 T03180117  RH  029%=      5-min Rain = 0
KEA1 141838Z 03014KT 32/12 A3025 RMK A01 T03190118  RH  029%=      5-min Rain = 0
KEA1 141839Z 03011KT 32/12 A3025 RMK A01 T03200117  RH  029%=      5-min Rain = 0
KEA1 141840Z 04007KT 32/12 A3025 RMK A01 T03180115  RH  029%=      5-min Rain = 0
KEA1 141841Z 00008G14KT 32/12 A3025 RMK A01 T03150116  RH  029%=      5-min Rain = 0
KEA1 141842Z 34010KT 32/12 A3025 RMK A01 T03160116  RH  029%=      5-min Rain = 0
KEA1 141843Z 35008KT 32/12 A3025 RMK A01 T03180117  RH  029%=      5-min Rain = 0
KEA1 141844Z 00010G18KT 32/12 A3025 RMK A01 T03180117  RH  029%=      5-min Rain = 0
KEA1 141845Z 03015KT 32/12 A3024 RMK A01 T03190117  RH  029%=      5-min Rain = 0
KEA1 141846Z 04013G18KT 32/12 A3025 RMK A01 T03210115  RH  028%=      5-min Rain = 0
KEA1 141847Z 05013KT 32/11 A3025 RMK A01 T03170114  RH  029%=      5-min Rain = 0
KEA1 141848Z 04009KT 31/11 A3025 RMK A01 T03140114  RH  029%=      5-min Rain = 0
KEA1 141849Z 03008KT 31/12 A3025 RMK A01 T03130115  RH  030%=      5-min Rain = 0
KEA1 141850Z 01012KT 31/12 A3024 RMK A01 T03140116  RH  030%=      5-min Rain = 0
KEA1 141851Z 02011KT 31/11 A3024 RMK A01 T03140114  RH  029%=      5-min Rain = 0
KEA1 141852Z 05009KT 31/12 A3025 RMK A01 T03140116  RH  030%=      5-min Rain = 0
KEA1 141853Z 06010KT 32/12 A3025 RMK A01 T03190117  RH  029%=      5-min Rain = 0
KEA1 141854Z 07009KT 32/12 A3025 RMK A01 T03190116  RH  029%=      5-min Rain = 0
KEA1 141855Z 07008KT 32/12 A3025 RMK A01 T03160115  RH  029%=      5-min Rain = 0
KEA1 141856Z 07011KT 32/12 A3024 RMK A01 T03180117  RH  029%=      5-min Rain = 0
KEA1 141857Z 06005G10KT 32/12 A3024 RMK A01 T03210118  RH  029%=      5-min Rain = 0
KEA1 141858Z 04005KT 32/12 A3024 RMK A01 T03210118  RH  029%=      5-min Rain = 0
KEA1 141859Z 05012KT 32/12 A3024 RMK A01 T03210119  RH  029%=      5-min Rain = 0
KEA1 141900Z 05008KT 32/12 A3024 RMK A01 T03210118  RH  029%=      5-min Rain = 0
KEA1 141901Z 03009G14KT 32/12 A3024 RMK A01 T03170118  RH  030%=      5-min Rain = 0
KEA1 141902Z 02011KT 32/12 A3024 RMK A01 T03190118  RH  029%=      5-min Rain = 0
KEA1 141903Z 04012G17KT 32/12 A3024 RMK A01 T03210119  RH  029%=      5-min Rain = 0
KEA1 141904Z 05018KT 32/12 A3024 RMK A01 T03240118  RH  028%=      5-min Rain = 0
KEA1 141905Z 07012KT 32/12 A3024 RMK A01 T03190115  RH  029%=      5-min Rain = 0
KEA1 141906Z 06008KT 31/12 A3024 RMK A01 T03140115  RH  029%=      5-min Rain = 0
KEA1 141907Z 07010KT 31/12 A3024 RMK A01 T03120116  RH  030%=      5-min Rain = 0
KEA1 141908Z 07011G16KT 32/12 A3024 RMK A01 T03160119  RH  030%=      5-min Rain = 0
KEA1 141909Z 07009KT 32/12 A3024 RMK A01 T03220118  RH  029%=      5-min Rain = 0
KEA1 141910Z 05011KT 32/12 A3023 RMK A01 T03230118  RH  029%=      5-min Rain = 0
KEA1 141911Z 05012KT 33/12 A3024 RMK A01 T03260118  RH  028%=      5-min Rain = 0
KEA1 141912Z 03010KT 33/12 A3023 RMK A01 T03260119  RH  028%=      5-min Rain = 0
KEA1 141913Z 03010KT 33/12 A3023 RMK A01 T03260117  RH  028%=      5-min Rain = 0
KEA1 141914Z 03012KT 32/12 A3023 RMK A01 T03240117  RH  028%=      5-min Rain = 0
KEA1 141915Z 03013KT 32/12 A3023 RMK A01 T03210116  RH  029%=      5-min Rain = 0
KEA1 141916Z 02016KT 32/12 A3023 RMK A01 T03210118  RH  029%=      5-min Rain = 0
KEA1 141917Z 01011KT 32/12 A3023 RMK A01 T03230117  RH  029%=      5-min Rain = 0
KEA1 141918Z 34011KT 32/12 A3023 RMK A01 T03200118  RH  029%=      5-min Rain = 0
KEA1 141919Z 34009KT 32/12 A3023 RMK A01 T03200118  RH  029%=      5-min Rain = 0
KEA1 141920Z 03010KT 32/12 A3023 RMK A01 T03210119  RH  029%=      5-min Rain = 0
KEA1 141921Z 04014KT 32/12 A3023 RMK A01 T03210119  RH  029%=      5-min Rain = 0
KEA1 141922Z 03011G16KT 32/12 A3023 RMK A01 T03200119  RH  029%=      5-min Rain = 0
KEA1 141923Z 04011G16KT 32/12 A3023 RMK A01 T03180119  RH  030%=      5-min Rain = 0
KEA1 141924Z 05007KT 32/12 A3023 RMK A01 T03170117  RH  029%=      5-min Rain = 0
KEA1 141925Z 06012G17KT 32/12 A3023 RMK A01 T03160119  RH  030%=      5-min Rain = 0
KEA1 141926Z 08007KT 32/12 A3023 RMK A01 T03190118  RH  029%=      5-min Rain = 0
KEA1 141927Z 04008KT 32/12 A3023 RMK A01 T03160119  RH  030%=      5-min Rain = 0
KEA1 141928Z 05009KT 32/12 A3023 RMK A01 T03170119  RH  030%=      5-min Rain = 0
KEA1 141929Z 04006KT 31/12 A3023 RMK A01 T03130118  RH  030%=      5-min Rain = 0
KEA1 141930Z 06007KT 32/12 A3023 RMK A01 T03150121  RH  031%=      5-min Rain = 0
KEA1 141931Z 07009KT 32/12 A3023 RMK A01 T03210120  RH  029%=      5-min Rain = 0
KEA1 141932Z 06009KT 32/12 A3023 RMK A01 T03220120  RH  029%=      5-min Rain = 0
KEA1 141933Z 06012KT 33/12 A3023 RMK A01 T03260123  RH  029%=      5-min Rain = 0
KEA1 141934Z 04009KT 32/12 A3023 RMK A01 T03240122  RH  029%=      5-min Rain = 0
KEA1 141935Z 05007KT 32/12 A3023 RMK A01 T03200120  RH  030%=      5-min Rain = 0
KEA1 141936Z 04009KT 32/12 A3023 RMK A01 T03190121  RH  030%=      5-min Rain = 0
KEA1 141937Z 07011G16KT 32/12 A3022 RMK A01 T03190120  RH  030%=      5-min Rain = 0
KEA1 141938Z 09008KT 32/12 A3022 RMK A01 T03240121  RH  029%=      5-min Rain = 0
KEA1 141939Z 06008KT 33/12 A3022 RMK A01 T03270123  RH  029%=      5-min Rain = 0
KEA1 141940Z 04010KT 33/13 A3022 RMK A01 T03280126  RH  029%=      5-min Rain = 0
KEA1 141941Z 07012KT 33/13 A3022 RMK A01 T03290126  RH  029%=      5-min Rain = 0
KEA1 141942Z 08010G16KT 33/13 A3022 RMK A01 T03290125  RH  029%=      5-min Rain = 0
KEA1 141943Z 07012G17KT 33/12 A3022 RMK A01 T03260124  RH  029%=      5-min Rain = 0
KEA1 141944Z 08008KT 32/13 A3022 RMK A01 T03200125  RH  030%=      5-min Rain = 0
KEA1 141945Z 07008KT 32/13 A3022 RMK A01 T03230126  RH  030%=      5-min Rain = 0
KEA1 141946Z 09007KT 33/13 A3022 RMK A01 T03290128  RH  030%=      5-min Rain = 0
KEA1 141947Z 09006KT 33/13 A3022 RMK A01 T03290125  RH  029%=      5-min Rain = 0
KEA1 141948Z 06009KT 32/13 A3022 RMK A01 T03240126  RH  030%=      5-min Rain = 0
KEA1 141949Z 07008KT 32/13 A3022 RMK A01 T03220126  RH  030%=      5-min Rain = 0
KEA1 141950Z 10007KT 32/13 A3022 RMK A01 T03210127  RH  031%=      5-min Rain = 0
KEA1 141951Z 08007KT 32/13 A3022 RMK A01 T03200127  RH  031%=      5-min Rain = 0
KEA1 141952Z 03008KT 32/13 A3022 RMK A01 T03230129  RH  031%=      5-min Rain = 0
KEA1 141953Z 06010KT 33/13 A3022 RMK A01 T03280130  RH  030%=      5-min Rain = 0
KEA1 141954Z 05012KT 33/13 A3022 RMK A01 T03300128  RH  029%=      5-min Rain = 0
KEA1 141955Z 03010KT 33/13 A3021 RMK A01 T03250126  RH  030%=      5-min Rain = 0
KEA1 141956Z 36004KT 32/13 A3021 RMK A01 T03200125  RH  030%=      5-min Rain = 0
KEA1 141957Z 05004G10KT 32/13 A3021 RMK A01 T03180125  RH  031%=      5-min Rain = 0
KEA1 141958Z 05010KT 32/13 A3021 RMK A01 T03200127  RH  031%=      5-min Rain = 0
KEA1 141959Z 06009KT 32/13 A3021 RMK A01 T03210126  RH  030%=      5-min Rain = 0
KEA1 142000Z 06007KT 32/13 A3021 RMK A01 T03180125  RH  031%=      5-min Rain = 0
KEA1 142001Z 04007KT 32/13 A3021 RMK A01 T03160125  RH  031%=      5-min Rain = 0
KEA1 142002Z 04012KT 32/13 A3021 RMK A01 T03170126  RH  031%=      5-min Rain = 0
KEA1 142003Z 04013KT 32/13 A3021 RMK A01 T03190126  RH  031%=      5-min Rain = 0
KEA1 142004Z 03010KT 32/13 A3021 RMK A01 T03190125  RH  031%=      5-min Rain = 0
KEA1 142005Z 02006KT 32/13 A3021 RMK A01 T03200126  RH  031%=      5-min Rain = 0
KEA1 142006Z 00006KT 32/12 A3021 RMK A01 T03190124  RH  030%=      5-min Rain = 0
KEA1 142007Z 36005KT 32/12 A3021 RMK A01 T03180123  RH  030%=      5-min Rain = 0
KEA1 142008Z 35007KT 32/12 A3021 RMK A01 T03180124  RH  031%=      5-min Rain = 0
KEA1 142009Z 00008KT 32/12 A3021 RMK A01 T03210124  RH  030%=      5-min Rain = 0
KEA1 142010Z 01007KT 32/12 A3021 RMK A01 T03210123  RH  030%=      5-min Rain = 0
KEA1 142011Z 05008KT 32/12 A302 RMK A01 T03220124  RH  030%=      5-min Rain = 0
KEA1 142012Z 02005KT 32/12 A302 RMK A01 T03220124  RH  030%=      5-min Rain = 0
KEA1 142013Z 32003KT 32/12 A302 RMK A01 T03210124  RH  030%=      5-min Rain = 0
KEA1 142014Z 33003KT 32/13 A302 RMK A01 T03220125  RH  030%=      5-min Rain = 0
KEA1 142015Z 05005KT 33/13 A302 RMK A01 T03250125  RH  029%=      5-min Rain = 0
KEA1 142016Z 05004KT 33/12 A302 RMK A01 T03260124  RH  029%=      5-min Rain = 0
KEA1 142017Z 02006KT 32/13 A302 RMK A01 T03240125  RH  030%=      5-min Rain = 0
KEA1 142018Z 04007KT 32/13 A302 RMK A01 T03240125  RH  030%=      5-min Rain = 0
KEA1 142019Z 02005KT 32/13 A302 RMK A01 T03240125  RH  030%=      5-min Rain = 0
KEA1 142020Z 06004G10KT 32/12 A302 RMK A01 T03230124  RH  030%=      5-min Rain = 0
KEA1 142021Z 08008KT 32/13 A302 RMK A01 T03210125  RH  030%=      5-min Rain = 0
KEA1 142022Z 08005KT 32/12 A302 RMK A01 T03210124  RH  030%=      5-min Rain = 0
KEA1 142023Z 06010KT 32/13 A3019 RMK A01 T03210126  RH  031%=      5-min Rain = 0
KEA1 142024Z 08006KT 32/13 A302 RMK A01 T03230126  RH  030%=      5-min Rain = 0
KEA1 142025Z 07005G10KT 32/12 A302 RMK A01 T03230124  RH  030%=      5-min Rain = 0
KEA1 142026Z 07005KT 32/12 A3019 RMK A01 T03210124  RH  030%=      5-min Rain = 0
KEA1 142027Z 06005KT 32/13 A3019 RMK A01 T03210125  RH  030%=      5-min Rain = 0
KEA1 142028Z 06003KT 32/12 A3019 RMK A01 T03210123  RH  030%=      5-min Rain = 0
KEA1 142029Z 03002KT 32/12 A3019 RMK A01 T03190122  RH  030%=      5-min Rain = 0
KEA1 142030Z 08003KT 32/12 A3019 RMK A01 T03190123  RH  030%=      5-min Rain = 0
KEA1 142031Z 06007KT 32/13 A3019 RMK A01 T03240125  RH  030%=      5-min Rain = 0
KEA1 142032Z 06005KT 33/12 A3019 RMK A01 T03260123  RH  029%=      5-min Rain = 0
KEA1 142033Z 10004KT 32/12 A3019 RMK A01 T03240123  RH  030%=      5-min Rain = 0
KEA1 142034Z 11003KT 32/12 A3019 RMK A01 T03220122  RH  030%=      5-min Rain = 0
KEA1 142035Z 06008KT 32/12 A3019 RMK A01 T03210122  RH  030%=      5-min Rain = 0
KEA1 142036Z 06006KT 32/12 A3019 RMK A01 T03200120  RH  029%=      5-min Rain = 0
KEA1 142037Z 06005KT 32/12 A3019 RMK A01 T03170119  RH  030%=      5-min Rain = 0
KEA1 142038Z 06001KT 32/12 A3019 RMK A01 T03150118  RH  030%=      5-min Rain = 0
KEA1 142039Z 02000KT 31/12 A3019 RMK A01 T03140119  RH  030%=      5-min Rain = 0
KEA1 142040Z 18001KT 32/12 A3019 RMK A01 T03180123  RH  030%=      5-min Rain = 0
KEA1 142041Z 20002KT 32/12 A3019 RMK A01 T03240123  RH  029%=      5-min Rain = 0
KEA1 142042Z 22001KT 33/12 A3019 RMK A01 T03260121  RH  029%=      5-min Rain = 0
KEA1 142043Z 34001KT 33/12 A3018 RMK A01 T03270120  RH  028%=      5-min Rain = 0
KEA1 142044Z 34002KT 33/12 A3018 RMK A01 T03270119  RH  028%=      5-min Rain = 0
KEA1 142045Z 02003KT 33/12 A3018 RMK A01 T03270118  RH  028%=      5-min Rain = 0
KEA1 142046Z 04003KT 33/12 A3018 RMK A01 T03270118  RH  028%=      5-min Rain = 0
KEA1 142047Z 04001KT 33/12 A3018 RMK A01 T03260120  RH  028%=      5-min Rain = 0
KEA1 142048Z 35006KT 33/12 A3018 RMK A01 T03290122  RH  028%=      5-min Rain = 0
KEA1 142049Z 35005KT 33/12 A3018 RMK A01 T03290122  RH  028%=      5-min Rain = 0
KEA1 142050Z 33005KT 33/12 A3018 RMK A01 T03270122  RH  029%=      5-min Rain = 0
KEA1 142051Z 35004KT 33/12 A3018 RMK A01 T03280124  RH  029%=      5-min Rain = 0
KEA1 142052Z 36004KT 33/12 A3018 RMK A01 T03320124  RH  028%=      5-min Rain = 0
KEA1 142053Z 34001KT 33/12 A3018 RMK A01 T03300121  RH  028%=      5-min Rain = 0
KEA1 142054Z 36002KT 33/12 A3018 RMK A01 T03280123  RH  029%=      5-min Rain = 0
KEA1 142055Z 02004KT 33/12 A3018 RMK A01 T03310124  RH  028%=      5-min Rain = 0
KEA1 142056Z 02005KT 33/12 A3017 RMK A01 T03340123  RH  028%=      5-min Rain = 0
KEA1 142057Z 03005KT 33/12 A3017 RMK A01 T03340123  RH  028%=      5-min Rain = 0
KEA1 142058Z 06004KT 33/12 A3017 RMK A01 T03320122  RH  028%=      5-min Rain = 0
KEA1 142059Z 04004KT 33/12 A3017 RMK A01 T03300123  RH  028%=      5-min Rain = 0
KEA1 142100Z 35005KT 33/12 A3017 RMK A01 T03320124  RH  028%=      5-min Rain = 0
KEA1 142101Z 36002KT 34/13 A3017 RMK A01 T03380127  RH  028%=      5-min Rain = 0
KEA1 142102Z 32004KT 34/12 A3017 RMK A01 T03410123  RH  027%=      5-min Rain = 0
KEA1 142103Z 00005KT 34/12 A3017 RMK A01 T03380123  RH  027%=      5-min Rain = 0
KEA1 142104Z 04005KT 33/12 A3017 RMK A01 T03340121  RH  027%=      5-min Rain = 0
KEA1 142105Z 34004KT 33/12 A3017 RMK A01 T03300121  RH  028%=      5-min Rain = 0
KEA1 142106Z 32003KT 33/12 A3017 RMK A01 T03280119  RH  028%=      5-min Rain = 0
KEA1 142107Z 32003KT 33/12 A3017 RMK A01 T03270120  RH  028%=      5-min Rain = 0
KEA1 142108Z 23001KT 33/12 A3017 RMK A01 T03300122  RH  028%=      5-min Rain = 0
KEA1 142109Z 04003KT 33/12 A3017 RMK A01 T03320121  RH  028%=      5-min Rain = 0
KEA1 142110Z 06003KT 33/12 A3017 RMK A01 T03320122  RH  028%=      5-min Rain = 0
KEA1 142111Z 05003KT 33/12 A3017 RMK A01 T03310122  RH  028%=      5-min Rain = 0
KEA1 142112Z 09002KT 33/12 A3017 RMK A01 T03330124  RH  028%=      5-min Rain = 0
KEA1 142113Z 06002KT 34/12 A3017 RMK A01 T03350123  RH  028%=      5-min Rain = 0
KEA1 142114Z 02004KT 34/12 A3016 RMK A01 T03360122  RH  027%=      5-min Rain = 0
KEA1 142115Z 05005KT 34/12 A3016 RMK A01 T03380121  RH  027%=      5-min Rain = 0
KEA1 142116Z 35003KT 34/12 A3016 RMK A01 T03390119  RH  026%=      5-min Rain = 0
KEA1 142117Z 36005KT 34/12 A3016 RMK A01 T03370115  RH  026%=      5-min Rain = 0
KEA1 142118Z 01004KT 33/11 A3016 RMK A01 T03330114  RH  026%=      5-min Rain = 0
KEA1 142119Z 05003KT 33/12 A3016 RMK A01 T03320120  RH  028%=      5-min Rain = 0
KEA1 142120Z 04004KT 33/12 A3016 RMK A01 T03330121  RH  028%=      5-min Rain = 0
KEA1 142121Z 02004KT 33/12 A3016 RMK A01 T03330121  RH  028%=      5-min Rain = 0
KEA1 142122Z 07004KT 33/12 A3016 RMK A01 T03340122  RH  028%=      5-min Rain = 0
KEA1 142123Z 10003KT 33/12 A3016 RMK A01 T03320119  RH  027%=      5-min Rain = 0
KEA1 142124Z 08002KT 33/12 A3016 RMK A01 T03300120  RH  028%=      5-min Rain = 0
KEA1 142125Z 36001KT 33/12 A3016 RMK A01 T03290120  RH  028%=      5-min Rain = 0
KEA1 142126Z 36002KT 33/12 A3016 RMK A01 T03310120  RH  028%=      5-min Rain = 0
KEA1 142127Z 33004KT 33/11 A3016 RMK A01 T03340111  RH  026%=      5-min Rain = 0
KEA1 142128Z 34005KT 34/11 A3016 RMK A01 T03350110  RH  025%=      5-min Rain = 0
KEA1 142129Z 35004KT 33/11 A3016 RMK A01 T03330107  RH  025%=      5-min Rain = 0
KEA1 142130Z 04002KT 33/11 A3016 RMK A01 T03320109  RH  026%=      5-min Rain = 0
KEA1 142131Z 07002KT 33/11 A3016 RMK A01 T03310110  RH  026%=      5-min Rain = 0
KEA1 142132Z 07001KT 33/11 A3015 RMK A01 T03310110  RH  026%=      5-min Rain = 0
KEA1 142133Z 36003KT 33/11 A3015 RMK A01 T03310111  RH  026%=      5-min Rain = 0
KEA1 142134Z 01006KT 33/11 A3015 RMK A01 T03340112  RH  026%=      5-min Rain = 0
KEA1 142135Z 01005KT 34/11 A3015 RMK A01 T03390112  RH  025%=      5-min Rain = 0
KEA1 142136Z 00006KT 34/11 A3015 RMK A01 T03410112  RH  025%=      5-min Rain = 0
KEA1 142137Z 02004KT 34/11 A3015 RMK A01 T03420112  RH  025%=      5-min Rain = 0
KEA1 142138Z 02001KT 34/11 A3015 RMK A01 T03420111  RH  025%=      5-min Rain = 0
KEA1 142139Z 35003KT 34/11 A3015 RMK A01 T03410111  RH  025%=      5-min Rain = 0
KEA1 142140Z 34006KT 34/11 A3015 RMK A01 T03390112  RH  025%=      5-min Rain = 0
KEA1 142141Z 34004KT 34/11 A3015 RMK A01 T03370109  RH  025%=      5-min Rain = 0
KEA1 142142Z 02007KT 34/11 A3015 RMK A01 T03360109  RH  025%=      5-min Rain = 0
KEA1 142143Z 04007KT 34/11 A3015 RMK A01 T03350113  RH  026%=      5-min Rain = 0
KEA1 142144Z 07005KT 34/12 A3015 RMK A01 T03380115  RH  026%=      5-min Rain = 0
KEA1 142145Z 06005KT 34/12 A3015 RMK A01 T03390115  RH  026%=      5-min Rain = 0
KEA1 142146Z 05004KT 34/12 A3015 RMK A01 T03390115  RH  026%=      5-min Rain = 0
KEA1 142147Z 03006KT 34/11 A3015 RMK A01 T03380113  RH  025%=      5-min Rain = 0
KEA1 142148Z 04006KT 34/11 A3015 RMK A01 T03370113  RH  026%=      5-min Rain = 0
KEA1 142149Z 05005KT 33/11 A3015 RMK A01 T03340112  RH  026%=      5-min Rain = 0
KEA1 142150Z 05004KT 33/11 A3015 RMK A01 T03320110  RH  026%=      5-min Rain = 0
KEA1 142151Z 05002KT 33/11 A3015 RMK A01 T03320111  RH  026%=      5-min Rain = 0
KEA1 142152Z 03002KT 34/12 A3015 RMK A01 T03370115  RH  026%=      5-min Rain = 0
KEA1 142153Z 01006KT 34/11 A3015 RMK A01 T03420114  RH  025%=      5-min Rain = 0
KEA1 142154Z 01005KT 34/11 A3015 RMK A01 T03440112  RH  024%=      5-min Rain = 0
KEA1 142155Z 02004KT 34/11 A3015 RMK A01 T03420111  RH  025%=      5-min Rain = 0
KEA1 142156Z 03004KT 34/11 A3015 RMK A01 T03390111  RH  025%=      5-min Rain = 0
KEA1 142157Z 07003KT 34/11 A3015 RMK A01 T03350110  RH  025%=      5-min Rain = 0
KEA1 142158Z 08002KT 33/11 A3015 RMK A01 T03320111  RH  026%=      5-min Rain = 0
KEA1 142159Z 01005KT 33/11 A3015 RMK A01 T03320112  RH  026%=      5-min Rain = 0
KEA1 142200Z 02005KT 33/11 A3015 RMK A01 T03330114  RH  026%=      5-min Rain = 0
KEA1 142201Z 35005KT 33/11 A3015 RMK A01 T03340114  RH  026%=      5-min Rain = 0
KEA1 142202Z 31004KT 33/12 A3015 RMK A01 T03340115  RH  026%=      5-min Rain = 0
KEA1 142203Z 33006KT 34/12 A3015 RMK A01 T03360116  RH  026%=      5-min Rain = 0
KEA1 142204Z 35003KT 34/12 A3015 RMK A01 T03370116  RH  026%=      5-min Rain = 0
KEA1 142205Z 01001KT 34/12 A3015 RMK A01 T03370115  RH  026%=      5-min Rain = 0
KEA1 142206Z 01005KT 34/12 A3015 RMK A01 T03380118  RH  026%=      5-min Rain = 0
KEA1 142207Z 04006KT 34/12 A3014 RMK A01 T03400117  RH  026%=      5-min Rain = 0
KEA1 142208Z 04006KT 34/12 A3014 RMK A01 T03370116  RH  026%=      5-min Rain = 0
KEA1 142209Z 05006KT 33/12 A3014 RMK A01 T03340117  RH  027%=      5-min Rain = 0
KEA1 142210Z 08005KT 33/12 A3014 RMK A01 T03330118  RH  027%=      5-min Rain = 0
KEA1 142211Z 04005KT 34/12 A3014 RMK A01 T03350119  RH  027%=      5-min Rain = 0
KEA1 142212Z 02001KT 34/12 A3014 RMK A01 T03360117  RH  026%=      5-min Rain = 0
KEA1 142213Z 36001KT 33/12 A3014 RMK A01 T03330116  RH  027%=      5-min Rain = 0
KEA1 142214Z 29002KT 33/12 A3014 RMK A01 T03320115  RH  027%=      5-min Rain = 0
KEA1 142215Z 29004KT 33/12 A3014 RMK A01 T03310117  RH  027%=      5-min Rain = 0
KEA1 142216Z 31005KT 33/12 A3014 RMK A01 T03330121  RH  028%=      5-min Rain = 0
KEA1 142217Z 36004KT 34/12 A3014 RMK A01 T03370122  RH  027%=      5-min Rain = 0
KEA1 142218Z 01004KT 34/12 A3014 RMK A01 T03380121  RH  027%=      5-min Rain = 0
KEA1 142219Z 35006KT 34/12 A3014 RMK A01 T03390122  RH  027%=      5-min Rain = 0
KEA1 142220Z 35009KT 34/12 A3014 RMK A01 T03440124  RH  026%=      5-min Rain = 0
KEA1 142221Z 34007KT 34/12 A3014 RMK A01 T03420121  RH  026%=      5-min Rain = 0
KEA1 142222Z 33005KT 34/12 A3014 RMK A01 T03370121  RH  027%=      5-min Rain = 0
KEA1 142223Z 34006KT 34/12 A3014 RMK A01 T03370121  RH  027%=      5-min Rain = 0
KEA1 142224Z 35005KT 34/12 A3014 RMK A01 T03400122  RH  027%=      5-min Rain = 0
KEA1 142225Z 35007KT 34/12 A3014 RMK A01 T03420122  RH  026%=      5-min Rain = 0
KEA1 142226Z 02008KT 34/12 A3014 RMK A01 T03440121  RH  026%=      5-min Rain = 0
KEA1 142227Z 04006KT 34/12 A3014 RMK A01 T03410121  RH  026%=      5-min Rain = 0
KEA1 142228Z 03005KT 34/12 A3014 RMK A01 T03400119  RH  026%=      5-min Rain = 0
KEA1 142229Z 00003KT 34/12 A3014 RMK A01 T03370118  RH  027%=      5-min Rain = 0
KEA1 142230Z 35003KT 34/12 A3014 RMK A01 T03350117  RH  026%=      5-min Rain = 0
KEA1 142231Z 01006KT 34/12 A3014 RMK A01 T03350118  RH  027%=      5-min Rain = 0
KEA1 142232Z 05006KT 34/12 A3014 RMK A01 T03360117  RH  026%=      5-min Rain = 0
KEA1 142233Z 06004KT 34/12 A3014 RMK A01 T03350117  RH  027%=      5-min Rain = 0
KEA1 142234Z 06004KT 34/12 A3014 RMK A01 T03350118  RH  027%=      5-min Rain = 0
KEA1 142235Z 07001KT 33/12 A3014 RMK A01 T03340115  RH  026%=      5-min Rain = 0
KEA1 142236Z 08003KT 33/12 A3014 RMK A01 T03340117  RH  027%=      5-min Rain = 0
KEA1 142237Z 12006KT 34/12 A3014 RMK A01 T03360119  RH  027%=      5-min Rain = 0
KEA1 142238Z 13007KT 34/12 A3014 RMK A01 T03370117  RH  026%=      5-min Rain = 0
KEA1 142239Z 12007KT 34/12 A3014 RMK A01 T03370117  RH  026%=      5-min Rain = 0
KEA1 142240Z 13004KT 34/12 A3014 RMK A01 T03360117  RH  026%=      5-min Rain = 0
KEA1 142241Z 02003KT 34/12 A3014 RMK A01 T03360119  RH  027%=      5-min Rain = 0
KEA1 142242Z 02006KT 34/12 A3014 RMK A01 T03390121  RH  027%=      5-min Rain = 0
KEA1 142243Z 03007KT 34/12 A3014 RMK A01 T03400118  RH  026%=      5-min Rain = 0
KEA1 142244Z 04006KT 34/12 A3014 RMK A01 T03370116  RH  026%=      5-min Rain = 0
KEA1 142245Z 01006KT 34/12 A3014 RMK A01 T03360117  RH  026%=      5-min Rain = 0
KEA1 142246Z 35009KT 34/12 A3014 RMK A01 T03370115  RH  026%=      5-min Rain = 0
KEA1 142247Z 35007KT 34/12 A3014 RMK A01 T03360115  RH  026%=      5-min Rain = 0
KEA1 142248Z 33004KT 34/11 A3014 RMK A01 T03360114  RH  026%=      5-min Rain = 0
KEA1 142249Z 35007G12KT 34/12 A3014 RMK A01 T03350116  RH  026%=      5-min Rain = 0
KEA1 142250Z 35007KT 34/12 A3014 RMK A01 T03370115  RH  026%=      5-min Rain = 0
KEA1 142251Z 36006KT 34/12 A3014 RMK A01 T03370115  RH  026%=      5-min Rain = 0
KEA1 142252Z 01006KT 34/12 A3014 RMK A01 T03370115  RH  026%=      5-min Rain = 0
KEA1 142253Z 01004KT 34/11 A3014 RMK A01 T03370112  RH  025%=      5-min Rain = 0
KEA1 142254Z 04003KT 34/11 A3014 RMK A01 T03360114  RH  026%=      5-min Rain = 0
KEA1 142255Z 01008KT 34/11 A3014 RMK A01 T03360113  RH  026%=      5-min Rain = 0
KEA1 142256Z 01005KT 34/11 A3014 RMK A01 T03360113  RH  026%=      5-min Rain = 0
KEA1 142257Z 03005KT 34/11 A3013 RMK A01 T03350112  RH  026%=      5-min Rain = 0
KEA1 142258Z 05005KT 33/11 A3013 RMK A01 T03340112  RH  026%=      5-min Rain = 0
KEA1 142259Z 05004KT 33/11 A3013 RMK A01 T03340114  RH  026%=      5-min Rain = 0
KEA1 142300Z 02004KT 34/11 A3013 RMK A01 T03350114  RH  026%=      5-min Rain = 0
KEA1 142301Z 35006KT 34/12 A3013 RMK A01 T03390116  RH  026%=      5-min Rain = 0
KEA1 142302Z 01008KT 34/12 A3013 RMK A01 T03420115  RH  025%=      5-min Rain = 0
KEA1 142303Z 02008KT 34/12 A3013 RMK A01 T03420115  RH  025%=      5-min Rain = 0
KEA1 142304Z 02007KT 34/11 A3013 RMK A01 T03430114  RH  025%=      5-min Rain = 0
KEA1 142305Z 01005KT 34/11 A3013 RMK A01 T03400113  RH  025%=      5-min Rain = 0
KEA1 142306Z 01007KT 34/11 A3013 RMK A01 T03380113  RH  025%=      5-min Rain = 0
KEA1 142307Z 03008KT 34/11 A3013 RMK A01 T03370112  RH  026%=      5-min Rain = 0
KEA1 142308Z 05007KT 34/11 A3013 RMK A01 T03360113  RH  026%=      5-min Rain = 0
KEA1 142309Z 04007KT 34/11 A3014 RMK A01 T03370113  RH  026%=      5-min Rain = 0
KEA1 142310Z 01006KT 34/11 A3014 RMK A01 T03360113  RH  026%=      5-min Rain = 0
KEA1 142311Z 33006KT 34/11 A3014 RMK A01 T03360111  RH  025%=      5-min Rain = 0
KEA1 142312Z 32006KT 34/11 A3014 RMK A01 T03370109  RH  025%=      5-min Rain = 0
KEA1 142313Z 33005KT 34/11 A3014 RMK A01 T03360109  RH  025%=      5-min Rain = 0
KEA1 142314Z 34005KT 34/11 A3014 RMK A01 T03360109  RH  025%=      5-min Rain = 0
KEA1 142315Z 32005KT 34/11 A3013 RMK A01 T03380110  RH  025%=      5-min Rain = 0
KEA1 142316Z 32004KT 34/11 A3013 RMK A01 T03380110  RH  025%=      5-min Rain = 0
KEA1 142317Z 30004KT 34/11 A3013 RMK A01 T03380111  RH  025%=      5-min Rain = 0
KEA1 142318Z 33003KT 34/11 A3013 RMK A01 T03360109  RH  025%=      5-min Rain = 0
KEA1 142319Z 32003KT 34/11 A3013 RMK A01 T03350110  RH  025%=      5-min Rain = 0
KEA1 142320Z 35007KT 34/11 A3013 RMK A01 T03350109  RH  025%=      5-min Rain = 0
KEA1 142321Z 31007KT 33/11 A3013 RMK A01 T03340110  RH  025%=      5-min Rain = 0
KEA1 142322Z 30005KT 33/11 A3013 RMK A01 T03340110  RH  026%=      5-min Rain = 0
KEA1 142323Z 31004KT 33/11 A3013 RMK A01 T03340110  RH  026%=      5-min Rain = 0
KEA1 142324Z 33004KT 34/11 A3013 RMK A01 T03350111  RH  025%=      5-min Rain = 0
KEA1 142325Z 35003KT 34/11 A3013 RMK A01 T03360111  RH  025%=      5-min Rain = 0
KEA1 142326Z 34003KT 34/11 A3013 RMK A01 T03360111  RH  025%=      5-min Rain = 0
KEA1 142327Z 33002KT 34/11 A3013 RMK A01 T03380114  RH  025%=      5-min Rain = 0
KEA1 142328Z 00007KT 34/11 A3013 RMK A01 T03400113  RH  025%=      5-min Rain = 0
KEA1 142329Z 34006KT 34/11 A3013 RMK A01 T03400112  RH  025%=      5-min Rain = 0
KEA1 142330Z 35005KT 34/11 A3013 RMK A01 T03360109  RH  025%=      5-min Rain = 0
KEA1 142331Z 34003KT 33/11 A3013 RMK A01 T03340111  RH  026%=      5-min Rain = 0
KEA1 142332Z 34002KT 33/11 A3013 RMK A01 T03340112  RH  026%=      5-min Rain = 0
KEA1 142333Z 02001KT 34/11 A3013 RMK A01 T03360113  RH  026%=      5-min Rain = 0
KEA1 142334Z 03003KT 34/11 A3013 RMK A01 T03380113  RH  025%=      5-min Rain = 0
KEA1 142335Z 04009KT 34/11 A3013 RMK A01 T03400113  RH  025%=      5-min Rain = 0
KEA1 142336Z 05007KT 34/11 A3013 RMK A01 T03380112  RH  025%=      5-min Rain = 0
KEA1 142337Z 03004KT 34/11 A3013 RMK A01 T03360111  RH  025%=      5-min Rain = 0
KEA1 142338Z 01005KT 33/11 A3013 RMK A01 T03340111  RH  026%=      5-min Rain = 0
KEA1 142339Z 02004KT 33/11 A3013 RMK A01 T03340110  RH  025%=      5-min Rain = 0
KEA1 142340Z 04003KT 33/11 A3013 RMK A01 T03330110  RH  026%=      5-min Rain = 0
KEA1 142341Z 04004KT 33/11 A3013 RMK A01 T03310109  RH  026%=      5-min Rain = 0
KEA1 142342Z 06003KT 33/11 A3013 RMK A01 T03320112  RH  026%=      5-min Rain = 0
KEA1 142343Z 00005KT 33/11 A3013 RMK A01 T03340112  RH  026%=      5-min Rain = 0
KEA1 142344Z 01003KT 34/11 A3013 RMK A01 T03350112  RH  026%=      5-min Rain = 0
KEA1 142345Z 02005KT 34/11 A3013 RMK A01 T03370114  RH  026%=      5-min Rain = 0
KEA1 142346Z 07005KT 34/12 A3013 RMK A01 T03370116  RH  026%=      5-min Rain = 0
KEA1 142347Z 07005KT 34/12 A3013 RMK A01 T03360116  RH  026%=      5-min Rain = 0
KEA1 142348Z 09006KT 33/11 A3013 RMK A01 T03340114  RH  026%=      5-min Rain = 0
KEA1 142349Z 09006KT 33/11 A3013 RMK A01 T03330112  RH  026%=      5-min Rain = 0
KEA1 142350Z 08006KT 33/11 A3013 RMK A01 T03330112  RH  026%=      5-min Rain = 0
KEA1 142351Z 08003KT 33/11 A3013 RMK A01 T03320112  RH  026%=      5-min Rain = 0
KEA1 142352Z 10003KT 33/11 A3013 RMK A01 T03310112  RH  026%=      5-min Rain = 0
KEA1 142353Z 11005KT 33/11 A3013 RMK A01 T03300111  RH  026%=      5-min Rain = 0
KEA1 142354Z 04005KT 33/11 A3013 RMK A01 T03310113  RH  026%=      5-min Rain = 0
KEA1 142355Z 03005KT 33/11 A3013 RMK A01 T03310110  RH  026%=      5-min Rain = 0
KEA1 142356Z 04006KT 33/11 A3013 RMK A01 T03310110  RH  026%=      5-min Rain = 0
KEA1 142357Z 05007KT 33/11 A3013 RMK A01 T03290111  RH  026%=      5-min Rain = 0
KEA1 142358Z 07007KT 33/12 A3013 RMK A01 T03300115  RH  027%=      5-min Rain = 0
KEA1 142359Z 06005KT 33/12 A3013 RMK A01 T03290116  RH  027%=      5-min Rain = 0
KEA1 150000Z 05006G11KT 33/12 A3013 RMK A01 T03280116  RH  027%=      5-min Rain = 0
KEA1 150001Z 07008KT 33/12 A3013 RMK A01 T03280117  RH  028%=      5-min Rain = 0
KEA1 150002Z 08009KT 33/12 A3013 RMK A01 T03290118  RH  028%=      5-min Rain = 0
KEA1 150003Z 07007KT 33/12 A3013 RMK A01 T03290118  RH  028%=      5-min Rain = 0
KEA1 150004Z 08008KT 33/12 A3013 RMK A01 T03280117  RH  028%=      5-min Rain = 0
KEA1 150005Z 08007KT 33/12 A3013 RMK A01 T03280116  RH  028%=      5-min Rain = 0
KEA1 150006Z 08007KT 33/12 A3013 RMK A01 T03270116  RH  028%=      5-min Rain = 0
KEA1 150007Z 08008KT 33/12 A3013 RMK A01 T03280118  RH  028%=      5-min Rain = 0
KEA1 150008Z 07008KT 33/12 A3013 RMK A01 T03280117  RH  028%=      5-min Rain = 0
KEA1 150009Z 09007KT 33/12 A3013 RMK A01 T03280117  RH  028%=      5-min Rain = 0
KEA1 150010Z 10005KT 33/12 A3013 RMK A01 T03280117  RH  028%=      5-min Rain = 0
KEA1 150011Z 12005KT 33/12 A3013 RMK A01 T03290117  RH  027%=      5-min Rain = 0
KEA1 150012Z 09005KT 33/12 A3013 RMK A01 T03300117  RH  027%=      5-min Rain = 0
KEA1 150013Z 07005KT 33/12 A3013 RMK A01 T03290117  RH  027%=      5-min Rain = 0
KEA1 150014Z 10005KT 33/12 A3013 RMK A01 T03280118  RH  028%=      5-min Rain = 0
KEA1 150015Z 11005KT 33/12 A3013 RMK A01 T03260116  RH  028%=      5-min Rain = 0
KEA1 150016Z 09005KT 32/12 A3013 RMK A01 T03240116  RH  028%=      5-min Rain = 0
KEA1 150017Z 08005KT 32/12 A3013 RMK A01 T03240117  RH  028%=      5-min Rain = 0
KEA1 150018Z 07008KT 32/12 A3013 RMK A01 T03220116  RH  028%=      5-min Rain = 0
KEA1 150019Z 07008KT 32/11 A3013 RMK A01 T03200114  RH  028%=      5-min Rain = 0
KEA1 150020Z 08007KT 32/12 A3013 RMK A01 T03190116  RH  029%=      5-min Rain = 0
KEA1 150021Z 08007KT 32/12 A3013 RMK A01 T03180116  RH  029%=      5-min Rain = 0
KEA1 150022Z 08006KT 32/12 A3013 RMK A01 T03170116  RH  029%=      5-min Rain = 0
KEA1 150023Z 09006KT 32/12 A3013 RMK A01 T03170116  RH  029%=      5-min Rain = 0
KEA1 150024Z 10007KT 32/12 A3013 RMK A01 T03170116  RH  029%=      5-min Rain = 0
KEA1 150025Z 10005KT 32/12 A3013 RMK A01 T03170116  RH  029%=      5-min Rain = 0
KEA1 150026Z 09005KT 32/12 A3013 RMK A01 T03170117  RH  029%=      5-min Rain = 0
KEA1 150027Z 09007KT 32/12 A3014 RMK A01 T03170117  RH  029%=      5-min Rain = 0
KEA1 150028Z 09006KT 32/12 A3014 RMK A01 T03170117  RH  029%=      5-min Rain = 0
KEA1 150029Z 08007KT 32/12 A3014 RMK A01 T03180117  RH  029%=      5-min Rain = 0
KEA1 150030Z 08007KT 32/12 A3014 RMK A01 T03180117  RH  029%=      5-min Rain = 0
KEA1 150031Z 08007KT 32/12 A3014 RMK A01 T03180117  RH  029%=      5-min Rain = 0
KEA1 150032Z 09007KT 32/12 A3014 RMK A01 T03180117  RH  029%=      5-min Rain = 0
KEA1 150033Z 08008KT 32/12 A3014 RMK A01 T03180117  RH  029%=      5-min Rain = 0
KEA1 150034Z 08008KT 32/12 A3014 RMK A01 T03180116  RH  029%=      5-min Rain = 0
KEA1 150035Z 09007KT 32/12 A3014 RMK A01 T03170116  RH  029%=      5-min Rain = 0
KEA1 150036Z 09006KT 32/12 A3014 RMK A01 T03170117  RH  029%=      5-min Rain = 0
KEA1 150037Z 10007KT 32/12 A3014 RMK A01 T03160117  RH  029%=      5-min Rain = 0
KEA1 150038Z 09006KT 32/12 A3014 RMK A01 T03160116  RH  029%=      5-min Rain = 0
KEA1 150039Z 08005KT 32/12 A3014 RMK A01 T03150116  RH  030%=      5-min Rain = 0
KEA1 150040Z 08005KT 31/12 A3014 RMK A01 T03140117  RH  030%=      5-min Rain = 0
KEA1 150041Z 08006KT 31/12 A3014 RMK A01 T03130116  RH  030%=      5-min Rain = 0
KEA1 150042Z 09006KT 31/12 A3014 RMK A01 T03120116  RH  030%=      5-min Rain = 0
KEA1 150043Z 10006KT 31/12 A3014 RMK A01 T03120116  RH  030%=      5-min Rain = 0
KEA1 150044Z 09006KT 31/12 A3014 RMK A01 T03120116  RH  030%=      5-min Rain = 0
KEA1 150045Z 08007KT 31/12 A3014 RMK A01 T03110115  RH  030%=      5-min Rain = 0
KEA1 150046Z 08008KT 31/12 A3014 RMK A01 T03110116  RH  030%=      5-min Rain = 0
KEA1 150047Z 09006KT 31/12 A3014 RMK A01 T03110116  RH  030%=      5-min Rain = 0
KEA1 150048Z 08006KT 31/12 A3014 RMK A01 T03100116  RH  030%=      5-min Rain = 0
KEA1 150049Z 09005KT 31/12 A3014 RMK A01 T03100116  RH  030%=      5-min Rain = 0
KEA1 150050Z 09006KT 31/12 A3014 RMK A01 T03100116  RH  030%=      5-min Rain = 0
KEA1 150051Z 09006KT 31/12 A3014 RMK A01 T03090116  RH  030%=      5-min Rain = 0
KEA1 150052Z 09006KT 31/12 A3014 RMK A01 T03090116  RH  030%=      5-min Rain = 0
KEA1 150053Z 09007KT 31/12 A3014 RMK A01 T03090115  RH  030%=      5-min Rain = 0
KEA1 150054Z 09007KT 31/12 A3014 RMK A01 T03090115  RH  030%=      5-min Rain = 0
KEA1 150055Z 09007KT 31/11 A3014 RMK A01 T03090114  RH  030%=      5-min Rain = 0
KEA1 150056Z 09007KT 31/11 A3014 RMK A01 T03090114  RH  030%=      5-min Rain = 0
KEA1 150057Z 08006KT 31/11 A3014 RMK A01 T03090114  RH  030%=      5-min Rain = 0
KEA1 150058Z 09005KT 31/12 A3014 RMK A01 T03090115  RH  030%=      5-min Rain = 0
KEA1 150059Z 09005KT 31/12 A3014 RMK A01 T03080115  RH  030%=      5-min Rain = 0
KEA1 150100Z 10005KT 31/12 A3014 RMK A01 T03070115  RH  031%=      5-min Rain = 0
KEA1 150101Z 10005KT 31/12 A3014 RMK A01 T03070115  RH  031%=      5-min Rain = 0
KEA1 150102Z 09005KT 31/12 A3014 RMK A01 T03060115  RH  031%=      5-min Rain = 0
KEA1 150103Z 09005KT 31/12 A3014 RMK A01 T03050115  RH  031%=      5-min Rain = 0
KEA1 150104Z 09005KT 31/11 A3014 RMK A01 T03050114  RH  031%=      5-min Rain = 0
KEA1 150105Z 09005KT 31/12 A3014 RMK A01 T03050115  RH  031%=      5-min Rain = 0
KEA1 150106Z 09004KT 31/12 A3014 RMK A01 T03050115  RH  031%=      5-min Rain = 0
KEA1 150107Z 09004KT 30/12 A3014 RMK A01 T03040115  RH  031%=      5-min Rain = 0
KEA1 150108Z 10005KT 30/12 A3014 RMK A01 T03030115  RH  031%=      5-min Rain = 0
KEA1 150109Z 10004KT 30/11 A3014 RMK A01 T03020114  RH  031%=      5-min Rain = 0
KEA1 150110Z 11005KT 30/12 A3015 RMK A01 T03020115  RH  032%=      5-min Rain = 0
KEA1 150111Z 11005KT 30/12 A3015 RMK A01 T03010115  RH  032%=      5-min Rain = 0
KEA1 150112Z 11005KT 30/12 A3015 RMK A01 T03010115  RH  032%=      5-min Rain = 0
KEA1 150113Z 11005KT 30/12 A3015 RMK A01 T03000115  RH  032%=      5-min Rain = 0
KEA1 150114Z 11005KT 30/12 A3015 RMK A01 T03000115  RH  032%=      5-min Rain = 0
KEA1 150115Z 11004KT 30/12 A3015 RMK A01 T02990115  RH  032%=      5-min Rain = 0
KEA1 150116Z 10004KT 30/12 A3015 RMK A01 T02980115  RH  032%=      5-min Rain = 0
KEA1 150117Z 10005KT 30/12 A3015 RMK A01 T02980115  RH  032%=      5-min Rain = 0
KEA1 150118Z 10004KT 30/12 A3015 RMK A01 T02970115  RH  032%=      5-min Rain = 0
KEA1 150119Z 10004KT 30/12 A3015 RMK A01 T02960115  RH  033%=      5-min Rain = 0
KEA1 150120Z 10004KT 30/12 A3015 RMK A01 T02950115  RH  033%=      5-min Rain = 0
KEA1 150121Z 10004KT 29/12 A3015 RMK A01 T02940115  RH  033%=      5-min Rain = 0
KEA1 150122Z 09004KT 29/12 A3015 RMK A01 T02940115  RH  033%=      5-min Rain = 0
KEA1 150123Z 10004KT 29/12 A3015 RMK A01 T02930115  RH  033%=      5-min Rain = 0
KEA1 150124Z 09004KT 29/12 A3015 RMK A01 T02920115  RH  033%=      5-min Rain = 0
KEA1 150125Z 09004KT 29/12 A3015 RMK A01 T02900115  RH  034%=      5-min Rain = 0
KEA1 150126Z 09004KT 29/12 A3015 RMK A01 T02890115  RH  034%=      5-min Rain = 0
KEA1 150127Z 09004KT 29/12 A3015 RMK A01 T02880115  RH  034%=      5-min Rain = 0
KEA1 150128Z 09004KT 29/11 A3016 RMK A01 T02860114  RH  034%=      5-min Rain = 0
KEA1 150129Z 09004KT 29/12 A3016 RMK A01 T02860115  RH  035%=      5-min Rain = 0
KEA1 150130Z 09004KT 29/12 A3016 RMK A01 T02850115  RH  035%=      5-min Rain = 0
KEA1 150131Z 09004KT 28/11 A3016 RMK A01 T02840114  RH  035%=      5-min Rain = 0
KEA1 150132Z 09005KT 28/11 A3016 RMK A01 T02830114  RH  035%=      5-min Rain = 0
KEA1 150133Z 09004KT 28/12 A3016 RMK A01 T02830115  RH  035%=      5-min Rain = 0
KEA1 150134Z 09005KT 28/12 A3016 RMK A01 T02830115  RH  035%=      5-min Rain = 0
KEA1 150135Z 09005KT 28/12 A3016 RMK A01 T02830115  RH  035%=      5-min Rain = 0
KEA1 150136Z 09005KT 28/12 A3016 RMK A01 T02830115  RH  035%=      5-min Rain = 0
KEA1 150137Z 10005KT 28/12 A3016 RMK A01 T02840115  RH  035%=      5-min Rain = 0
KEA1 150138Z 10005KT 28/12 A3016 RMK A01 T02830115  RH  035%=      5-min Rain = 0
KEA1 150139Z 10005KT 28/12 A3016 RMK A01 T02840115  RH  035%=      5-min Rain = 0
KEA1 150140Z 10005KT 28/11 A3016 RMK A01 T02840114  RH  035%=      5-min Rain = 0
KEA1 150141Z 10005KT 28/12 A3016 RMK A01 T02840115  RH  035%=      5-min Rain = 0
KEA1 150142Z 10005KT 28/12 A3016 RMK A01 T02840115  RH  035%=      5-min Rain = 0
KEA1 150143Z 10005KT 28/12 A3016 RMK A01 T02840115  RH  035%=      5-min Rain = 0
KEA1 150144Z 11006KT 29/12 A3016 RMK A01 T02850115  RH  035%=      5-min Rain = 0
KEA1 150145Z 11006KT 29/12 A3016 RMK A01 T02850115  RH  035%=      5-min Rain = 0
KEA1 150146Z 11007KT 29/12 A3016 RMK A01 T02850115  RH  035%=      5-min Rain = 0
KEA1 150147Z 11006KT 28/12 A3016 RMK A01 T02840115  RH  035%=      5-min Rain = 0
KEA1 150148Z 10006KT 28/12 A3016 RMK A01 T02830115  RH  035%=      5-min Rain = 0
KEA1 150149Z 10006KT 28/12 A3016 RMK A01 T02830115  RH  035%=      5-min Rain = 0
KEA1 150150Z 11006KT 28/12 A3016 RMK A01 T02820115  RH  035%=      5-min Rain = 0
KEA1 150151Z 11006KT 28/12 A3016 RMK A01 T02820115  RH  035%=      5-min Rain = 0
KEA1 150152Z 11006KT 28/12 A3016 RMK A01 T02820115  RH  036%=      5-min Rain = 0
KEA1 150153Z 11007KT 28/12 A3016 RMK A01 T02820115  RH  035%=      5-min Rain = 0
KEA1 150154Z 11007KT 28/12 A3016 RMK A01 T02820115  RH  035%=      5-min Rain = 0
KEA1 150155Z 12007KT 28/12 A3017 RMK A01 T02820115  RH  035%=      5-min Rain = 0
KEA1 150156Z 12006KT 28/12 A3017 RMK A01 T02830115  RH  035%=      5-min Rain = 0
KEA1 150157Z 12006KT 28/12 A3017 RMK A01 T02820115  RH  035%=      5-min Rain = 0
KEA1 150158Z 13006KT 28/12 A3017 RMK A01 T02820115  RH  036%=      5-min Rain = 0
KEA1 150159Z 13006KT 28/11 A3017 RMK A01 T02800114  RH  036%=      5-min Rain = 0
KEA1 150200Z 13006KT 28/11 A3017 RMK A01 T02790114  RH  036%=      5-min Rain = 0
KEA1 150201Z 13006KT 28/11 A3017 RMK A01 T02770114  RH  036%=      5-min Rain = 0
KEA1 150202Z 13007KT 28/11 A3017 RMK A01 T02750114  RH  037%=      5-min Rain = 0
KEA1 150203Z 14007KT 27/11 A3017 RMK A01 T02730113  RH  037%=      5-min Rain = 0
KEA1 150204Z 13008KT 27/11 A3017 RMK A01 T02700113  RH  037%=      5-min Rain = 0
KEA1 150205Z 14008KT 27/11 A3017 RMK A01 T02690113  RH  038%=      5-min Rain = 0
KEA1 150206Z 13008KT 27/11 A3017 RMK A01 T02680113  RH  038%=      5-min Rain = 0
KEA1 150207Z 13009KT 27/11 A3017 RMK A01 T02660113  RH  038%=      5-min Rain = 0
KEA1 150208Z 13009KT 27/11 A3017 RMK A01 T02650113  RH  039%=      5-min Rain = 0
KEA1 150209Z 13009KT 26/11 A3017 RMK A01 T02640113  RH  039%=      5-min Rain = 0
KEA1 150210Z 13009KT 26/11 A3017 RMK A01 T02640113  RH  039%=      5-min Rain = 0
KEA1 150211Z 13009KT 26/11 A3017 RMK A01 T02640113  RH  039%=      5-min Rain = 0
KEA1 150212Z 14009KT 26/11 A3017 RMK A01 T02640114  RH  039%=      5-min Rain = 0
KEA1 150213Z 14008KT 26/11 A3017 RMK A01 T02640114  RH  039%=      5-min Rain = 0
KEA1 150214Z 14008KT 26/11 A3017 RMK A01 T02630114  RH  039%=      5-min Rain = 0
KEA1 150215Z 14008KT 26/11 A3017 RMK A01 T02620114  RH  040%=      5-min Rain = 0
KEA1 150216Z 14008KT 26/11 A3017 RMK A01 T02610114  RH  040%=      5-min Rain = 0
KEA1 150217Z 14008KT 26/11 A3017 RMK A01 T02600114  RH  040%=      5-min Rain = 0
KEA1 150218Z 14008KT 26/11 A3017 RMK A01 T02600114  RH  040%=      5-min Rain = 0
KEA1 150219Z 14008KT 26/11 A3017 RMK A01 T02600114  RH  040%=      5-min Rain = 0
KEA1 150220Z 13009KT 26/11 A3017 RMK A01 T02600114  RH  040%=      5-min Rain = 0
KEA1 150221Z 13009KT 26/12 A3017 RMK A01 T02610115  RH  040%=      5-min Rain = 0
KEA1 150222Z 13009KT 26/12 A3017 RMK A01 T02620115  RH  040%=      5-min Rain = 0
KEA1 150223Z 13009KT 26/12 A3017 RMK A01 T02620115  RH  040%=      5-min Rain = 0
KEA1 150224Z 13009KT 26/12 A3017 RMK A01 T02630115  RH  040%=      5-min Rain = 0
KEA1 150225Z 14009KT 26/12 A3017 RMK A01 T02630115  RH  040%=      5-min Rain = 0
KEA1 150226Z 14009KT 26/12 A3017 RMK A01 T02630115  RH  040%=      5-min Rain = 0
KEA1 150227Z 14008KT 26/12 A3017 RMK A01 T02640115  RH  039%=      5-min Rain = 0
KEA1 150228Z 14008KT 26/12 A3017 RMK A01 T02640115  RH  039%=      5-min Rain = 0
KEA1 150229Z 14008KT 26/12 A3017 RMK A01 T02640115  RH  039%=      5-min Rain = 0
KEA1 150230Z 14008KT 26/12 A3017 RMK A01 T02640115  RH  039%=      5-min Rain = 0
KEA1 150231Z 14008KT 27/12 A3017 RMK A01 T02650115  RH  039%=      5-min Rain = 0
KEA1 150232Z 14008KT 26/12 A3017 RMK A01 T02640115  RH  039%=      5-min Rain = 0
KEA1 150233Z 14008KT 27/12 A3017 RMK A01 T02650116  RH  039%=      5-min Rain = 0
KEA1 150234Z 14008KT 27/12 A3017 RMK A01 T02650116  RH  039%=      5-min Rain = 0
KEA1 150235Z 14008KT 27/12 A3017 RMK A01 T02650115  RH  039%=      5-min Rain = 0
KEA1 150236Z 14008KT 27/12 A3017 RMK A01 T02650115  RH  039%=      5-min Rain = 0
KEA1 150237Z 14008KT 26/12 A3017 RMK A01 T02640115  RH  039%=      5-min Rain = 0
KEA1 150238Z 14008KT 26/12 A3017 RMK A01 T02640115  RH  039%=      5-min Rain = 0
KEA1 150239Z 14008KT 26/12 A3017 RMK A01 T02640116  RH  039%=      5-min Rain = 0
KEA1 150240Z 14007KT 26/12 A3017 RMK A01 T02640116  RH  040%=      5-min Rain = 0
KEA1 150241Z 14008KT 26/12 A3017 RMK A01 T02630116  RH  040%=      5-min Rain = 0
KEA1 150242Z 14008KT 26/12 A3017 RMK A01 T02620116  RH  040%=      5-min Rain = 0
KEA1 150243Z 15007KT 26/12 A3017 RMK A01 T02610116  RH  040%=      5-min Rain = 0
KEA1 150244Z 15007KT 26/12 A3017 RMK A01 T02600116  RH  041%=      5-min Rain = 0
KEA1 150245Z 14007KT 26/12 A3017 RMK A01 T02590116  RH  041%=      5-min Rain = 0
KEA1 150246Z 14007KT 26/12 A3017 RMK A01 T02580116  RH  041%=      5-min Rain = 0
KEA1 150247Z 14007KT 26/12 A3017 RMK A01 T02570116  RH  041%=      5-min Rain = 0
KEA1 150248Z 14007KT 26/12 A3017 RMK A01 T02560116  RH  041%=      5-min Rain = 0
KEA1 150249Z 14007KT 26/12 A3017 RMK A01 T02550116  RH  042%=      5-min Rain = 0
KEA1 150250Z 14006KT 26/12 A3017 RMK A01 T02550116  RH  042%=      5-min Rain = 0
KEA1 150251Z 13005KT 25/12 A3017 RMK A01 T02540116  RH  042%=      5-min Rain = 0
KEA1 150252Z 12004KT 25/12 A3018 RMK A01 T02520116  RH  042%=      5-min Rain = 0
KEA1 150253Z 10003KT 25/12 A3018 RMK A01 T02510116  RH  043%=      5-min Rain = 0
KEA1 150254Z 10003KT 25/12 A3018 RMK A01 T02510116  RH  043%=      5-min Rain = 0
KEA1 150255Z 11004KT 25/12 A3018 RMK A01 T02510116  RH  043%=      5-min Rain = 0
KEA1 150256Z 12005KT 25/12 A3018 RMK A01 T02510116  RH  043%=      5-min Rain = 0
KEA1 150257Z 12005KT 25/12 A3018 RMK A01 T02520116  RH  043%=      5-min Rain = 0
KEA1 150258Z 13006KT 25/12 A3018 RMK A01 T02520116  RH  043%=      5-min Rain = 0
KEA1 150259Z 13006KT 25/12 A3018 RMK A01 T02520116  RH  043%=      5-min Rain = 0
KEA1 150300Z 12006KT 25/12 A3018 RMK A01 T02520116  RH  043%=      5-min Rain = 0
KEA1 150301Z 13006KT 25/12 A3018 RMK A01 T02520116  RH  043%=      5-min Rain = 0
KEA1 150302Z 12006KT 25/12 A3018 RMK A01 T02530117  RH  043%=      5-min Rain = 0
KEA1 150303Z 12006KT 25/12 A3018 RMK A01 T02520117  RH  043%=      5-min Rain = 0
KEA1 150304Z 13005KT 25/12 A3018 RMK A01 T02510116  RH  043%=      5-min Rain = 0
KEA1 150305Z 13005KT 25/12 A3018 RMK A01 T02490116  RH  043%=      5-min Rain = 0
KEA1 150306Z 13005KT 25/12 A3018 RMK A01 T02480116  RH  044%=      5-min Rain = 0
KEA1 150307Z 13005KT 25/12 A3018 RMK A01 T02480116  RH  044%=      5-min Rain = 0
KEA1 150308Z 13005KT 25/12 A3018 RMK A01 T02480116  RH  044%=      5-min Rain = 0
KEA1 150309Z 13005KT 25/12 A3018 RMK A01 T02480117  RH  044%=      5-min Rain = 0
KEA1 150310Z 13005KT 25/12 A3018 RMK A01 T02490117  RH  044%=      5-min Rain = 0
KEA1 150311Z 13005KT 25/12 A3018 RMK A01 T02490117  RH  044%=      5-min Rain = 0
KEA1 150312Z 12005KT 25/12 A3018 RMK A01 T02490117  RH  044%=      5-min Rain = 0
KEA1 150313Z 12005KT 25/12 A3018 RMK A01 T02490117  RH  044%=      5-min Rain = 0
KEA1 150314Z 10004KT 25/12 A3018 RMK A01 T02480117  RH  044%=      5-min Rain = 0
KEA1 150315Z 10004KT 25/12 A3018 RMK A01 T02470116  RH  044%=      5-min Rain = 0
KEA1 150316Z 11005KT 25/12 A3018 RMK A01 T02450116  RH  045%=      5-min Rain = 0
KEA1 150317Z 11006KT 24/12 A3018 RMK A01 T02440116  RH  045%=      5-min Rain = 0
KEA1 150318Z 12006KT 24/12 A3018 RMK A01 T02440117  RH  045%=      5-min Rain = 0
KEA1 150319Z 12007KT 25/12 A3018 RMK A01 T02470118  RH  045%=      5-min Rain = 0
KEA1 150320Z 12007KT 25/12 A3018 RMK A01 T02480118  RH  044%=      5-min Rain = 0
KEA1 150321Z 11007KT 25/12 A3018 RMK A01 T02490118  RH  044%=      5-min Rain = 0
KEA1 150322Z 11006KT 25/12 A3018 RMK A01 T02480118  RH  044%=      5-min Rain = 0
KEA1 150323Z 11006KT 25/12 A3018 RMK A01 T02480118  RH  044%=      5-min Rain = 0
KEA1 150324Z 11006KT 25/12 A3018 RMK A01 T02470118  RH  044%=      5-min Rain = 0
KEA1 150325Z 11006KT 25/12 A3018 RMK A01 T02460118  RH  045%=      5-min Rain = 0
KEA1 150326Z 11006KT 25/12 A3019 RMK A01 T02450119  RH  045%=      5-min Rain = 0
KEA1 150327Z 11006KT 25/12 A3019 RMK A01 T02450119  RH  046%=      5-min Rain = 0
KEA1 150328Z 11006KT 25/12 A3019 RMK A01 T02450120  RH  046%=      5-min Rain = 0
KEA1 150329Z 11006KT 25/12 A3019 RMK A01 T02450121  RH  046%=      5-min Rain = 0
KEA1 150330Z 11006KT 25/12 A3019 RMK A01 T02450121  RH  046%=      5-min Rain = 0
KEA1 150331Z 12006KT 25/12 A3019 RMK A01 T02450121  RH  046%=      5-min Rain = 0
KEA1 150332Z 12007KT 25/12 A3019 RMK A01 T02450121  RH  046%=      5-min Rain = 0
KEA1 150333Z 12007KT 25/12 A3019 RMK A01 T02450121  RH  046%=      5-min Rain = 0
KEA1 150334Z 11007KT 25/12 A3019 RMK A01 T02450121  RH  046%=      5-min Rain = 0
KEA1 150335Z 11007KT 25/12 A3019 RMK A01 T02450122  RH  046%=      5-min Rain = 0
KEA1 150336Z 12007KT 25/12 A3019 RMK A01 T02450122  RH  046%=      5-min Rain = 0
KEA1 150337Z 12007KT 24/12 A3019 RMK A01 T02440123  RH  047%=      5-min Rain = 0
KEA1 150338Z 13007KT 24/12 A302 RMK A01 T02440122  RH  047%=      5-min Rain = 0
KEA1 150339Z 13007KT 24/12 A302 RMK A01 T02440122  RH  046%=      5-min Rain = 0
KEA1 150340Z 13007KT 24/12 A302 RMK A01 T02430121  RH  046%=      5-min Rain = 0
KEA1 150341Z 13008KT 24/12 A302 RMK A01 T02410119  RH  046%=      5-min Rain = 0
KEA1 150342Z 13008KT 24/12 A302 RMK A01 T02390119  RH  047%=      5-min Rain = 0
KEA1 150343Z 14008KT 24/12 A302 RMK A01 T02370118  RH  047%=      5-min Rain = 0
KEA1 150344Z 14009KT 24/12 A302 RMK A01 T02360117  RH  047%=      5-min Rain = 0
KEA1 150345Z 14009KT 23/12 A302 RMK A01 T02340117  RH  048%=      5-min Rain = 0
KEA1 150346Z 13010KT 23/12 A302 RMK A01 T02330117  RH  048%=      5-min Rain = 0
KEA1 150347Z 13009KT 23/12 A302 RMK A01 T02330117  RH  048%=      5-min Rain = 0
KEA1 150348Z 13010KT 23/12 A302 RMK A01 T02340117  RH  048%=      5-min Rain = 0
KEA1 150349Z 13010KT 24/12 A302 RMK A01 T02360118  RH  048%=      5-min Rain = 0
KEA1 150350Z 13010KT 24/12 A302 RMK A01 T02370118  RH  047%=      5-min Rain = 0
KEA1 150351Z 13009KT 24/12 A302 RMK A01 T02360118  RH  047%=      5-min Rain = 0
KEA1 150352Z 13009KT 24/12 A302 RMK A01 T02360118  RH  047%=      5-min Rain = 0
KEA1 150353Z 13009KT 24/12 A302 RMK A01 T02360118  RH  048%=      5-min Rain = 0
KEA1 150354Z 13009KT 24/12 A302 RMK A01 T02350118  RH  048%=      5-min Rain = 0
KEA1 150355Z 13008KT 24/12 A302 RMK A01 T02360119  RH  048%=      5-min Rain = 0
KEA1 150356Z 13009KT 24/12 A302 RMK A01 T02360118  RH  048%=      5-min Rain = 0
KEA1 150357Z 13009KT 24/12 A302 RMK A01 T02370119  RH  048%=      5-min Rain = 0
KEA1 150358Z 13008KT 24/12 A302 RMK A01 T02380120  RH  047%=      5-min Rain = 0
KEA1 150359Z 12008KT 24/12 A302 RMK A01 T02390120  RH  047%=      5-min Rain = 0
KEA1 150400Z 12008KT 24/12 A302 RMK A01 T02390120  RH  047%=      5-min Rain = 0
KEA1 150401Z 13007KT 24/12 A302 RMK A01 T02400121  RH  047%=      5-min Rain = 0
KEA1 150402Z 13007KT 24/12 A302 RMK A01 T02410121  RH  047%=      5-min Rain = 0
KEA1 150403Z 13007KT 24/12 A302 RMK A01 T02410121  RH  047%=      5-min Rain = 0
KEA1 150404Z 13008KT 24/12 A302 RMK A01 T02410121  RH  047%=      5-min Rain = 0
KEA1 150405Z 13007KT 24/12 A302 RMK A01 T02410122  RH  047%=      5-min Rain = 0
KEA1 150406Z 13007KT 24/12 A302 RMK A01 T02410122  RH  047%=      5-min Rain = 0
KEA1 150407Z 14008KT 24/12 A302 RMK A01 T02400122  RH  047%=      5-min Rain = 0
KEA1 150408Z 14008KT 24/12 A302 RMK A01 T02400121  RH  047%=      5-min Rain = 0
KEA1 150409Z 14008KT 24/12 A302 RMK A01 T02390121  RH  048%=      5-min Rain = 0
KEA1 150410Z 14008KT 24/12 A302 RMK A01 T02380121  RH  048%=      5-min Rain = 0
KEA1 150411Z 14007KT 24/12 A302 RMK A01 T02380122  RH  048%=      5-min Rain = 0
KEA1 150412Z 13008KT 24/12 A302 RMK A01 T02370122  RH  048%=      5-min Rain = 0
KEA1 150413Z 13007KT 24/12 A302 RMK A01 T02380122  RH  048%=      5-min Rain = 0
KEA1 150414Z 13007KT 24/12 A302 RMK A01 T02400122  RH  048%=      5-min Rain = 0
KEA1 150415Z 14007KT 24/12 A302 RMK A01 T02400122  RH  048%=      5-min Rain = 0
KEA1 150416Z 14008KT 24/12 A302 RMK A01 T02400122  RH  048%=      5-min Rain = 0
KEA1 150417Z 14007KT 24/12 A302 RMK A01 T02400122  RH  048%=      5-min Rain = 0
KEA1 150418Z 14007KT 24/12 A302 RMK A01 T02400123  RH  048%=      5-min Rain = 0
KEA1 150419Z 14007KT 24/12 A302 RMK A01 T02400123  RH  048%=      5-min Rain = 0
KEA1 150420Z 13007KT 24/12 A302 RMK A01 T02400123  RH  048%=      5-min Rain = 0
KEA1 150421Z 13007KT 24/12 A302 RMK A01 T02410123  RH  048%=      5-min Rain = 0
KEA1 150422Z 12008KT 24/12 A302 RMK A01 T02410123  RH  048%=      5-min Rain = 0
KEA1 150423Z 12009KT 24/12 A302 RMK A01 T02430124  RH  047%=      5-min Rain = 0
KEA1 150424Z 12008KT 24/12 A302 RMK A01 T02430123  RH  047%=      5-min Rain = 0
KEA1 150425Z 13008KT 24/12 A302 RMK A01 T02440124  RH  047%=      5-min Rain = 0
KEA1 150426Z 12009KT 24/12 A302 RMK A01 T02440124  RH  047%=      5-min Rain = 0
KEA1 150427Z 12008KT 25/12 A302 RMK A01 T02450124  RH  047%=      5-min Rain = 0
KEA1 150428Z 12009KT 25/12 A302 RMK A01 T02460124  RH  046%=      5-min Rain = 0
KEA1 150429Z 12008KT 25/12 A302 RMK A01 T02460124  RH  046%=      5-min Rain = 0
KEA1 150430Z 12008KT 25/12 A302 RMK A01 T02460124  RH  046%=      5-min Rain = 0
KEA1 150431Z 12009KT 25/12 A302 RMK A01 T02470123  RH  046%=      5-min Rain = 0
KEA1 150432Z 12009KT 25/12 A302 RMK A01 T02470124  RH  046%=      5-min Rain = 0
KEA1 150433Z 12009KT 25/12 A302 RMK A01 T02490124  RH  046%=      5-min Rain = 0
KEA1 150434Z 12009KT 25/12 A302 RMK A01 T02500124  RH  046%=      5-min Rain = 0
KEA1 150435Z 12010KT 25/13 A302 RMK A01 T02510125  RH  045%=      5-min Rain = 0
KEA1 150436Z 12010KT 25/13 A302 RMK A01 T02510126  RH  046%=      5-min Rain = 0
KEA1 150437Z 12010KT 25/13 A302 RMK A01 T02520127  RH  046%=      5-min Rain = 0
KEA1 150438Z 12010KT 25/13 A302 RMK A01 T02540128  RH  046%=      5-min Rain = 0
KEA1 150439Z 13010KT 26/13 A302 RMK A01 T02550129  RH  046%=      5-min Rain = 0
KEA1 150440Z 13011KT 26/13 A302 RMK A01 T02560130  RH  046%=      5-min Rain = 0
KEA1 150441Z 13010KT 26/13 A302 RMK A01 T02560131  RH  046%=      5-min Rain = 0
KEA1 150442Z 12010KT 26/13 A302 RMK A01 T02560132  RH  046%=      5-min Rain = 0
KEA1 150443Z 12010KT 26/13 A302 RMK A01 T02560132  RH  046%=      5-min Rain = 0
KEA1 150444Z 12009KT 26/13 A302 RMK A01 T02570133  RH  046%=      5-min Rain = 0
KEA1 150445Z 12009KT 26/13 A302 RMK A01 T02570133  RH  046%=      5-min Rain = 0
KEA1 150446Z 12010KT 26/13 A302 RMK A01 T02570134  RH  046%=      5-min Rain = 0
KEA1 150447Z 12010KT 26/13 A302 RMK A01 T02570134  RH  047%=      5-min Rain = 0
KEA1 150448Z 12010KT 26/13 A302 RMK A01 T02560134  RH  047%=      5-min Rain = 0
KEA1 150449Z 12011KT 26/13 A302 RMK A01 T02560134  RH  047%=      5-min Rain = 0
KEA1 150450Z 12011KT 26/14 A302 RMK A01 T02560135  RH  047%=      5-min Rain = 0
KEA1 150451Z 12010KT 26/14 A302 RMK A01 T02560135  RH  047%=      5-min Rain = 0
KEA1 150452Z 12010KT 26/14 A302 RMK A01 T02560136  RH  047%=      5-min Rain = 0
KEA1 150453Z 12010KT 26/14 A302 RMK A01 T02550136  RH  048%=      5-min Rain = 0
KEA1 150454Z 12010KT 26/14 A302 RMK A01 T02550137  RH  048%=      5-min Rain = 0
KEA1 150455Z 12011KT 26/14 A302 RMK A01 T02550137  RH  048%=      5-min Rain = 0
KEA1 150456Z 12011KT 26/14 A302 RMK A01 T02550138  RH  048%=      5-min Rain = 0
KEA1 150457Z 12010KT 26/14 A302 RMK A01 T02550138  RH  048%=      5-min Rain = 0
KEA1 150458Z 12011KT 26/14 A302 RMK A01 T02550138  RH  048%=      5-min Rain = 0
KEA1 150459Z 12010KT 26/14 A302 RMK A01 T02550138  RH  048%=      5-min Rain = 0

Page generated in 0.1269 seconds.